<?xml version='1.0' encoding='UTF-8'?>
<gpx version="1.1" creator="https://www.komoot.de" xmlns="http://www.topografix.com/GPX/1/1" xmlns:xsi="http://www.w3.org/2001/XMLSchema-instance" xsi:schemaLocation="http://www.topografix.com/GPX/1/1 http://www.topografix.com/GPX/1/1/gpx.xsd">
  <metadata>
    <name>PWW Krummesse, 10 km, Kornbrennerwege der Stecknitzregion, 10.07.2021 14:32</name>
    <author>
      <link href="https://www.komoot.de">
        <text>komoot</text>
        <type>text/html</type>
      </link>
    </author>
  </metadata>
  <trk>
    <name>PWW Krummesse, 10 km, Kornbrennerwege der Stecknitzregion, 10.07.2021 14:32</name>
    <trkseg>
      <trkpt lat="53.781875" lon="10.641092">
        <ele>57.290444</ele>
        <time>2021-07-10T11:39:48.999Z</time>
      </trkpt>
      <trkpt lat="53.781724" lon="10.641210">
        <ele>57.290444</ele>
        <time>2021-07-10T11:40:29.823Z</time>
      </trkpt>
      <trkpt lat="53.781615" lon="10.641275">
        <ele>57.290444</ele>
        <time>2021-07-10T11:40:32.836Z</time>
      </trkpt>
      <trkpt lat="53.781511" lon="10.641334">
        <ele>57.290444</ele>
        <time>2021-07-10T11:40:35.823Z</time>
      </trkpt>
      <trkpt lat="53.781406" lon="10.641401">
        <ele>57.290444</ele>
        <time>2021-07-10T11:40:38.847Z</time>
      </trkpt>
      <trkpt lat="53.781299" lon="10.641473">
        <ele>57.290444</ele>
        <time>2021-07-10T11:40:41.816Z</time>
      </trkpt>
      <trkpt lat="53.781196" lon="10.641550">
        <ele>57.290444</ele>
        <time>2021-07-10T11:40:44.801Z</time>
      </trkpt>
      <trkpt lat="53.781090" lon="10.641630">
        <ele>57.290444</ele>
        <time>2021-07-10T11:40:47.826Z</time>
      </trkpt>
      <trkpt lat="53.780986" lon="10.641722">
        <ele>57.107978</ele>
        <time>2021-07-10T11:40:50.824Z</time>
      </trkpt>
      <trkpt lat="53.780882" lon="10.641806">
        <ele>56.787587</ele>
        <time>2021-07-10T11:40:53.830Z</time>
      </trkpt>
      <trkpt lat="53.780781" lon="10.641895">
        <ele>56.470995</ele>
        <time>2021-07-10T11:40:56.818Z</time>
      </trkpt>
      <trkpt lat="53.780678" lon="10.641958">
        <ele>56.166497</ele>
        <time>2021-07-10T11:41:00.822Z</time>
      </trkpt>
      <trkpt lat="53.780576" lon="10.641960">
        <ele>55.882888</ele>
        <time>2021-07-10T11:41:03.819Z</time>
      </trkpt>
      <trkpt lat="53.780479" lon="10.641905">
        <ele>55.598467</ele>
        <time>2021-07-10T11:41:06.827Z</time>
      </trkpt>
      <trkpt lat="53.780386" lon="10.641784">
        <ele>55.272322</ele>
        <time>2021-07-10T11:41:09.840Z</time>
      </trkpt>
      <trkpt lat="53.780297" lon="10.641642">
        <ele>54.932250</ele>
        <time>2021-07-10T11:41:12.843Z</time>
      </trkpt>
      <trkpt lat="53.780234" lon="10.641445">
        <ele>54.564254</ele>
        <time>2021-07-10T11:41:15.832Z</time>
      </trkpt>
      <trkpt lat="53.780232" lon="10.641291">
        <ele>54.311197</ele>
        <time>2021-07-10T11:41:17.843Z</time>
      </trkpt>
      <trkpt lat="53.780262" lon="10.641070">
        <ele>53.938675</ele>
        <time>2021-07-10T11:41:20.869Z</time>
      </trkpt>
      <trkpt lat="53.780315" lon="10.640862">
        <ele>53.566549</ele>
        <time>2021-07-10T11:41:23.819Z</time>
      </trkpt>
      <trkpt lat="53.780390" lon="10.640686">
        <ele>53.210065</ele>
        <time>2021-07-10T11:41:26.811Z</time>
      </trkpt>
      <trkpt lat="53.780472" lon="10.640516">
        <ele>52.849547</ele>
        <time>2021-07-10T11:41:29.815Z</time>
      </trkpt>
      <trkpt lat="53.780557" lon="10.640354">
        <ele>52.493629</ele>
        <time>2021-07-10T11:41:32.844Z</time>
      </trkpt>
      <trkpt lat="53.780653" lon="10.640214">
        <ele>52.087898</ele>
        <time>2021-07-10T11:41:35.819Z</time>
      </trkpt>
      <trkpt lat="53.780748" lon="10.640058">
        <ele>51.587446</ele>
        <time>2021-07-10T11:41:38.823Z</time>
      </trkpt>
      <trkpt lat="53.780814" lon="10.639899">
        <ele>51.153362</ele>
        <time>2021-07-10T11:41:41.823Z</time>
      </trkpt>
      <trkpt lat="53.780821" lon="10.639692">
        <ele>50.690179</ele>
        <time>2021-07-10T11:41:44.826Z</time>
      </trkpt>
      <trkpt lat="53.780819" lon="10.639506">
        <ele>50.274597</ele>
        <time>2021-07-10T11:41:47.813Z</time>
      </trkpt>
      <trkpt lat="53.780820" lon="10.639307">
        <ele>49.830027</ele>
        <time>2021-07-10T11:41:50.816Z</time>
      </trkpt>
      <trkpt lat="53.780820" lon="10.639094">
        <ele>49.354198</ele>
        <time>2021-07-10T11:41:53.795Z</time>
      </trkpt>
      <trkpt lat="53.780826" lon="10.638941">
        <ele>49.011653</ele>
        <time>2021-07-10T11:41:57.820Z</time>
      </trkpt>
      <trkpt lat="53.780795" lon="10.638793">
        <ele>48.660870</ele>
        <time>2021-07-10T11:42:07.822Z</time>
      </trkpt>
      <trkpt lat="53.780732" lon="10.638657">
        <ele>48.274817</ele>
        <time>2021-07-10T11:42:11.812Z</time>
      </trkpt>
      <trkpt lat="53.780705" lon="10.638457">
        <ele>47.816515</ele>
        <time>2021-07-10T11:42:15.836Z</time>
      </trkpt>
      <trkpt lat="53.780664" lon="10.638288">
        <ele>47.408394</ele>
        <time>2021-07-10T11:42:19.826Z</time>
      </trkpt>
      <trkpt lat="53.780595" lon="10.638192">
        <ele>47.070687</ele>
        <time>2021-07-10T11:42:24.832Z</time>
      </trkpt>
      <trkpt lat="53.780475" lon="10.638213">
        <ele>46.614581</ele>
        <time>2021-07-10T11:42:28.837Z</time>
      </trkpt>
      <trkpt lat="53.780366" lon="10.638248">
        <ele>46.195129</ele>
        <time>2021-07-10T11:42:31.823Z</time>
      </trkpt>
      <trkpt lat="53.780257" lon="10.638286">
        <ele>45.774377</ele>
        <time>2021-07-10T11:42:34.827Z</time>
      </trkpt>
      <trkpt lat="53.780138" lon="10.638340">
        <ele>45.445446</ele>
        <time>2021-07-10T11:42:37.838Z</time>
      </trkpt>
      <trkpt lat="53.780009" lon="10.638382">
        <ele>45.324473</ele>
        <time>2021-07-10T11:42:40.835Z</time>
      </trkpt>
      <trkpt lat="53.779883" lon="10.638406">
        <ele>45.207708</ele>
        <time>2021-07-10T11:42:43.818Z</time>
      </trkpt>
      <trkpt lat="53.779764" lon="10.638425">
        <ele>45.097635</ele>
        <time>2021-07-10T11:42:46.816Z</time>
      </trkpt>
      <trkpt lat="53.779633" lon="10.638443">
        <ele>44.976601</ele>
        <time>2021-07-10T11:42:49.811Z</time>
      </trkpt>
      <trkpt lat="53.779503" lon="10.638451">
        <ele>44.856805</ele>
        <time>2021-07-10T11:42:52.833Z</time>
      </trkpt>
      <trkpt lat="53.779378" lon="10.638460">
        <ele>44.741590</ele>
        <time>2021-07-10T11:42:55.831Z</time>
      </trkpt>
      <trkpt lat="53.779275" lon="10.638466">
        <ele>44.646681</ele>
        <time>2021-07-10T11:42:59.830Z</time>
      </trkpt>
      <trkpt lat="53.779127" lon="10.638453">
        <ele>44.510206</ele>
        <time>2021-07-10T11:43:26.820Z</time>
      </trkpt>
      <trkpt lat="53.778996" lon="10.638470">
        <ele>44.389215</ele>
        <time>2021-07-10T11:43:29.804Z</time>
      </trkpt>
      <trkpt lat="53.778899" lon="10.638476">
        <ele>44.299828</ele>
        <time>2021-07-10T11:43:31.848Z</time>
      </trkpt>
      <trkpt lat="53.778807" lon="10.638487">
        <ele>44.214895</ele>
        <time>2021-07-10T11:43:33.811Z</time>
      </trkpt>
      <trkpt lat="53.778713" lon="10.638485">
        <ele>44.128324</ele>
        <time>2021-07-10T11:43:35.823Z</time>
      </trkpt>
      <trkpt lat="53.778611" lon="10.638491">
        <ele>44.034336</ele>
        <time>2021-07-10T11:43:37.824Z</time>
      </trkpt>
      <trkpt lat="53.778510" lon="10.638496">
        <ele>43.941286</ele>
        <time>2021-07-10T11:43:39.806Z</time>
      </trkpt>
      <trkpt lat="53.778411" lon="10.638504">
        <ele>43.850014</ele>
        <time>2021-07-10T11:43:41.817Z</time>
      </trkpt>
      <trkpt lat="53.778313" lon="10.638515">
        <ele>43.781233</ele>
        <time>2021-07-10T11:43:43.800Z</time>
      </trkpt>
      <trkpt lat="53.778216" lon="10.638521">
        <ele>43.718161</ele>
        <time>2021-07-10T11:43:45.809Z</time>
      </trkpt>
      <trkpt lat="53.778117" lon="10.638530">
        <ele>43.653738</ele>
        <time>2021-07-10T11:43:47.811Z</time>
      </trkpt>
      <trkpt lat="53.778018" lon="10.638538">
        <ele>43.589335</ele>
        <time>2021-07-10T11:43:49.813Z</time>
      </trkpt>
      <trkpt lat="53.777913" lon="10.638546">
        <ele>43.521038</ele>
        <time>2021-07-10T11:43:51.817Z</time>
      </trkpt>
      <trkpt lat="53.777818" lon="10.638556">
        <ele>43.459188</ele>
        <time>2021-07-10T11:43:53.834Z</time>
      </trkpt>
      <trkpt lat="53.777725" lon="10.638562">
        <ele>43.398713</ele>
        <time>2021-07-10T11:43:55.826Z</time>
      </trkpt>
      <trkpt lat="53.777632" lon="10.638569">
        <ele>43.338223</ele>
        <time>2021-07-10T11:43:57.833Z</time>
      </trkpt>
      <trkpt lat="53.777538" lon="10.638578">
        <ele>43.277044</ele>
        <time>2021-07-10T11:43:59.838Z</time>
      </trkpt>
      <trkpt lat="53.777439" lon="10.638593">
        <ele>43.212457</ele>
        <time>2021-07-10T11:44:01.828Z</time>
      </trkpt>
      <trkpt lat="53.777339" lon="10.638609">
        <ele>43.147188</ele>
        <time>2021-07-10T11:44:03.810Z</time>
      </trkpt>
      <trkpt lat="53.777238" lon="10.638630">
        <ele>43.081065</ele>
        <time>2021-07-10T11:44:05.814Z</time>
      </trkpt>
      <trkpt lat="53.777142" lon="10.638646">
        <ele>43.018383</ele>
        <time>2021-07-10T11:44:07.802Z</time>
      </trkpt>
      <trkpt lat="53.777041" lon="10.638662">
        <ele>42.952467</ele>
        <time>2021-07-10T11:44:09.799Z</time>
      </trkpt>
      <trkpt lat="53.776941" lon="10.638680">
        <ele>42.887121</ele>
        <time>2021-07-10T11:44:11.840Z</time>
      </trkpt>
      <trkpt lat="53.776806" lon="10.638706">
        <ele>42.798832</ele>
        <time>2021-07-10T11:44:14.820Z</time>
      </trkpt>
      <trkpt lat="53.776708" lon="10.638715">
        <ele>42.735059</ele>
        <time>2021-07-10T11:44:16.832Z</time>
      </trkpt>
      <trkpt lat="53.776606" lon="10.638723">
        <ele>42.668709</ele>
        <time>2021-07-10T11:44:18.838Z</time>
      </trkpt>
      <trkpt lat="53.776508" lon="10.638728">
        <ele>42.811451</ele>
        <time>2021-07-10T11:44:20.840Z</time>
      </trkpt>
      <trkpt lat="53.776407" lon="10.638728">
        <ele>42.973876</ele>
        <time>2021-07-10T11:44:22.835Z</time>
      </trkpt>
      <trkpt lat="53.776302" lon="10.638728">
        <ele>43.142733</ele>
        <time>2021-07-10T11:44:24.802Z</time>
      </trkpt>
      <trkpt lat="53.776203" lon="10.638737">
        <ele>43.302171</ele>
        <time>2021-07-10T11:44:26.825Z</time>
      </trkpt>
      <trkpt lat="53.776103" lon="10.638745">
        <ele>43.463167</ele>
        <time>2021-07-10T11:44:28.841Z</time>
      </trkpt>
      <trkpt lat="53.775997" lon="10.638743">
        <ele>43.633643</ele>
        <time>2021-07-10T11:44:30.825Z</time>
      </trkpt>
      <trkpt lat="53.775894" lon="10.638749">
        <ele>43.799382</ele>
        <time>2021-07-10T11:44:32.844Z</time>
      </trkpt>
      <trkpt lat="53.775787" lon="10.638757">
        <ele>43.971624</ele>
        <time>2021-07-10T11:44:34.842Z</time>
      </trkpt>
      <trkpt lat="53.775686" lon="10.638765">
        <ele>44.134226</ele>
        <time>2021-07-10T11:44:36.843Z</time>
      </trkpt>
      <trkpt lat="53.775590" lon="10.638769">
        <ele>44.288657</ele>
        <time>2021-07-10T11:44:38.829Z</time>
      </trkpt>
      <trkpt lat="53.775495" lon="10.638770">
        <ele>44.441435</ele>
        <time>2021-07-10T11:44:40.840Z</time>
      </trkpt>
      <trkpt lat="53.775402" lon="10.638770">
        <ele>44.590995</ele>
        <time>2021-07-10T11:44:42.839Z</time>
      </trkpt>
      <trkpt lat="53.775312" lon="10.638773">
        <ele>44.735758</ele>
        <time>2021-07-10T11:44:44.815Z</time>
      </trkpt>
      <trkpt lat="53.775179" lon="10.638777">
        <ele>44.949677</ele>
        <time>2021-07-10T11:44:47.836Z</time>
      </trkpt>
      <trkpt lat="53.775059" lon="10.638760">
        <ele>45.143332</ele>
        <time>2021-07-10T11:44:50.820Z</time>
      </trkpt>
      <trkpt lat="53.774962" lon="10.638681">
        <ele>45.316451</ele>
        <time>2021-07-10T11:44:53.828Z</time>
      </trkpt>
      <trkpt lat="53.774788" lon="10.638655">
        <ele>45.660743</ele>
        <time>2021-07-10T11:45:27.839Z</time>
      </trkpt>
      <trkpt lat="53.774687" lon="10.638666">
        <ele>46.078639</ele>
        <time>2021-07-10T11:45:30.843Z</time>
      </trkpt>
      <trkpt lat="53.774585" lon="10.638695">
        <ele>46.505705</ele>
        <time>2021-07-10T11:45:33.812Z</time>
      </trkpt>
      <trkpt lat="53.774485" lon="10.638759">
        <ele>46.947154</ele>
        <time>2021-07-10T11:45:37.803Z</time>
      </trkpt>
      <trkpt lat="53.774395" lon="10.638777">
        <ele>47.321355</ele>
        <time>2021-07-10T11:45:40.822Z</time>
      </trkpt>
      <trkpt lat="53.774291" lon="10.638815">
        <ele>47.760672</ele>
        <time>2021-07-10T11:45:43.807Z</time>
      </trkpt>
      <trkpt lat="53.774204" lon="10.638857">
        <ele>48.134232</ele>
        <time>2021-07-10T11:45:46.814Z</time>
      </trkpt>
      <trkpt lat="53.774110" lon="10.638929">
        <ele>48.560274</ele>
        <time>2021-07-10T11:45:49.822Z</time>
      </trkpt>
      <trkpt lat="53.774006" lon="10.639067">
        <ele>49.105980</ele>
        <time>2021-07-10T11:45:52.838Z</time>
      </trkpt>
      <trkpt lat="53.773934" lon="10.639162">
        <ele>49.482968</ele>
        <time>2021-07-10T11:45:54.829Z</time>
      </trkpt>
      <trkpt lat="53.773852" lon="10.639299">
        <ele>49.958777</ele>
        <time>2021-07-10T11:45:57.814Z</time>
      </trkpt>
      <trkpt lat="53.773835" lon="10.639484">
        <ele>50.415631</ele>
        <time>2021-07-10T11:46:00.817Z</time>
      </trkpt>
      <trkpt lat="53.773830" lon="10.639654">
        <ele>50.830971</ele>
        <time>2021-07-10T11:46:03.814Z</time>
      </trkpt>
      <trkpt lat="53.773882" lon="10.639924">
        <ele>51.523916</ele>
        <time>2021-07-10T11:46:36.826Z</time>
      </trkpt>
      <trkpt lat="53.773915" lon="10.640086">
        <ele>51.942045</ele>
        <time>2021-07-10T11:46:39.822Z</time>
      </trkpt>
      <trkpt lat="53.773942" lon="10.640276">
        <ele>52.418889</ele>
        <time>2021-07-10T11:46:42.819Z</time>
      </trkpt>
      <trkpt lat="53.773978" lon="10.640472">
        <ele>52.919725</ele>
        <time>2021-07-10T11:46:45.821Z</time>
      </trkpt>
      <trkpt lat="53.774015" lon="10.640665">
        <ele>53.124670</ele>
        <time>2021-07-10T11:46:48.823Z</time>
      </trkpt>
      <trkpt lat="53.774059" lon="10.640865">
        <ele>53.295024</ele>
        <time>2021-07-10T11:46:51.810Z</time>
      </trkpt>
      <trkpt lat="53.774105" lon="10.641067">
        <ele>53.467829</ele>
        <time>2021-07-10T11:46:54.821Z</time>
      </trkpt>
      <trkpt lat="53.774142" lon="10.641268">
        <ele>53.635881</ele>
        <time>2021-07-10T11:46:57.797Z</time>
      </trkpt>
      <trkpt lat="53.774168" lon="10.641480">
        <ele>53.808716</ele>
        <time>2021-07-10T11:47:00.814Z</time>
      </trkpt>
      <trkpt lat="53.774196" lon="10.641685">
        <ele>53.976671</ele>
        <time>2021-07-10T11:47:03.833Z</time>
      </trkpt>
      <trkpt lat="53.774190" lon="10.641857">
        <ele>54.114209</ele>
        <time>2021-07-10T11:47:06.836Z</time>
      </trkpt>
      <trkpt lat="53.774073" lon="10.641918">
        <ele>54.279578</ele>
        <time>2021-07-10T11:47:09.810Z</time>
      </trkpt>
      <trkpt lat="53.773976" lon="10.641934">
        <ele>54.411222</ele>
        <time>2021-07-10T11:47:11.850Z</time>
      </trkpt>
      <trkpt lat="53.773868" lon="10.641963">
        <ele>54.558928</ele>
        <time>2021-07-10T11:47:13.819Z</time>
      </trkpt>
      <trkpt lat="53.773768" lon="10.641997">
        <ele>54.696703</ele>
        <time>2021-07-10T11:47:15.823Z</time>
      </trkpt>
      <trkpt lat="53.773671" lon="10.642032">
        <ele>54.830671</ele>
        <time>2021-07-10T11:47:17.828Z</time>
      </trkpt>
      <trkpt lat="53.773578" lon="10.642066">
        <ele>54.959189</ele>
        <time>2021-07-10T11:47:19.831Z</time>
      </trkpt>
      <trkpt lat="53.773483" lon="10.642095">
        <ele>55.089582</ele>
        <time>2021-07-10T11:47:21.828Z</time>
      </trkpt>
      <trkpt lat="53.773392" lon="10.642117">
        <ele>55.213748</ele>
        <time>2021-07-10T11:47:23.809Z</time>
      </trkpt>
      <trkpt lat="53.773269" lon="10.642173">
        <ele>55.385799</ele>
        <time>2021-07-10T11:47:26.837Z</time>
      </trkpt>
      <trkpt lat="53.773179" lon="10.642298">
        <ele>55.538818</ele>
        <time>2021-07-10T11:47:29.830Z</time>
      </trkpt>
      <trkpt lat="53.773167" lon="10.642493">
        <ele>55.690197</ele>
        <time>2021-07-10T11:47:33.851Z</time>
      </trkpt>
      <trkpt lat="53.773183" lon="10.642678">
        <ele>55.834562</ele>
        <time>2021-07-10T11:47:36.812Z</time>
      </trkpt>
      <trkpt lat="53.773209" lon="10.642891">
        <ele>56.002496</ele>
        <time>2021-07-10T11:47:39.827Z</time>
      </trkpt>
      <trkpt lat="53.773245" lon="10.643117">
        <ele>56.183224</ele>
        <time>2021-07-10T11:47:42.822Z</time>
      </trkpt>
      <trkpt lat="53.773266" lon="10.643274">
        <ele>56.307514</ele>
        <time>2021-07-10T11:47:44.829Z</time>
      </trkpt>
      <trkpt lat="53.773286" lon="10.643428">
        <ele>56.429258</ele>
        <time>2021-07-10T11:47:46.825Z</time>
      </trkpt>
      <trkpt lat="53.773306" lon="10.643583">
        <ele>56.551757</ele>
        <time>2021-07-10T11:47:48.829Z</time>
      </trkpt>
      <trkpt lat="53.773324" lon="10.643740">
        <ele>56.675240</ele>
        <time>2021-07-10T11:47:50.827Z</time>
      </trkpt>
      <trkpt lat="53.773344" lon="10.643899">
        <ele>56.800758</ele>
        <time>2021-07-10T11:47:52.827Z</time>
      </trkpt>
      <trkpt lat="53.773365" lon="10.644061">
        <ele>56.928816</ele>
        <time>2021-07-10T11:47:54.840Z</time>
      </trkpt>
      <trkpt lat="53.773384" lon="10.644224">
        <ele>57.057097</ele>
        <time>2021-07-10T11:47:56.820Z</time>
      </trkpt>
      <trkpt lat="53.773406" lon="10.644388">
        <ele>57.186946</ele>
        <time>2021-07-10T11:47:58.831Z</time>
      </trkpt>
      <trkpt lat="53.773424" lon="10.644550">
        <ele>57.314221</ele>
        <time>2021-07-10T11:48:00.813Z</time>
      </trkpt>
      <trkpt lat="53.773444" lon="10.644710">
        <ele>57.440494</ele>
        <time>2021-07-10T11:48:02.822Z</time>
      </trkpt>
      <trkpt lat="53.773463" lon="10.644868">
        <ele>57.564989</ele>
        <time>2021-07-10T11:48:04.828Z</time>
      </trkpt>
      <trkpt lat="53.773481" lon="10.645019">
        <ele>57.683928</ele>
        <time>2021-07-10T11:48:06.826Z</time>
      </trkpt>
      <trkpt lat="53.773499" lon="10.645173">
        <ele>57.780568</ele>
        <time>2021-07-10T11:48:08.843Z</time>
      </trkpt>
      <trkpt lat="53.773521" lon="10.645334">
        <ele>57.833656</ele>
        <time>2021-07-10T11:48:10.814Z</time>
      </trkpt>
      <trkpt lat="53.773541" lon="10.645497">
        <ele>57.887139</ele>
        <time>2021-07-10T11:48:12.820Z</time>
      </trkpt>
      <trkpt lat="53.773560" lon="10.645661">
        <ele>57.940829</ele>
        <time>2021-07-10T11:48:14.827Z</time>
      </trkpt>
      <trkpt lat="53.773581" lon="10.645819">
        <ele>57.992857</ele>
        <time>2021-07-10T11:48:16.828Z</time>
      </trkpt>
      <trkpt lat="53.773602" lon="10.645978">
        <ele>58.045198</ele>
        <time>2021-07-10T11:48:18.816Z</time>
      </trkpt>
      <trkpt lat="53.773620" lon="10.646137">
        <ele>58.097207</ele>
        <time>2021-07-10T11:48:20.839Z</time>
      </trkpt>
      <trkpt lat="53.773638" lon="10.646297">
        <ele>58.149532</ele>
        <time>2021-07-10T11:48:22.819Z</time>
      </trkpt>
      <trkpt lat="53.773659" lon="10.646460">
        <ele>58.203128</ele>
        <time>2021-07-10T11:48:24.812Z</time>
      </trkpt>
      <trkpt lat="53.773677" lon="10.646625">
        <ele>58.257032</ele>
        <time>2021-07-10T11:48:26.819Z</time>
      </trkpt>
      <trkpt lat="53.773694" lon="10.646786">
        <ele>58.309574</ele>
        <time>2021-07-10T11:48:28.830Z</time>
      </trkpt>
      <trkpt lat="53.773718" lon="10.646942">
        <ele>58.361361</ele>
        <time>2021-07-10T11:48:30.826Z</time>
      </trkpt>
      <trkpt lat="53.773744" lon="10.647149">
        <ele>58.429348</ele>
        <time>2021-07-10T11:48:33.838Z</time>
      </trkpt>
      <trkpt lat="53.773748" lon="10.647315">
        <ele>58.482722</ele>
        <time>2021-07-10T11:48:36.828Z</time>
      </trkpt>
      <trkpt lat="53.773660" lon="10.647449">
        <ele>58.547078</ele>
        <time>2021-07-10T11:48:40.838Z</time>
      </trkpt>
      <trkpt lat="53.773541" lon="10.647537">
        <ele>58.617676</ele>
        <time>2021-07-10T11:48:43.815Z</time>
      </trkpt>
      <trkpt lat="53.773450" lon="10.647612">
        <ele>58.672700</ele>
        <time>2021-07-10T11:48:45.843Z</time>
      </trkpt>
      <trkpt lat="53.773363" lon="10.647700">
        <ele>58.727801</ele>
        <time>2021-07-10T11:48:47.821Z</time>
      </trkpt>
      <trkpt lat="53.773274" lon="10.647804">
        <ele>58.694586</ele>
        <time>2021-07-10T11:48:49.846Z</time>
      </trkpt>
      <trkpt lat="53.773187" lon="10.647925">
        <ele>58.632737</ele>
        <time>2021-07-10T11:48:51.821Z</time>
      </trkpt>
      <trkpt lat="53.773101" lon="10.648038">
        <ele>58.572938</ele>
        <time>2021-07-10T11:48:53.799Z</time>
      </trkpt>
      <trkpt lat="53.773018" lon="10.648155">
        <ele>58.513609</ele>
        <time>2021-07-10T11:48:55.819Z</time>
      </trkpt>
      <trkpt lat="53.772944" lon="10.648267">
        <ele>58.459082</ele>
        <time>2021-07-10T11:48:57.818Z</time>
      </trkpt>
      <trkpt lat="53.772867" lon="10.648415">
        <ele>58.395084</ele>
        <time>2021-07-10T11:49:00.832Z</time>
      </trkpt>
      <trkpt lat="53.772824" lon="10.648555">
        <ele>58.343873</ele>
        <time>2021-07-10T11:49:04.822Z</time>
      </trkpt>
      <trkpt lat="53.772637" lon="10.648710">
        <ele>58.229513</ele>
        <time>2021-07-10T11:49:37.823Z</time>
      </trkpt>
      <trkpt lat="53.772548" lon="10.648856">
        <ele>58.161434</ele>
        <time>2021-07-10T11:49:40.826Z</time>
      </trkpt>
      <trkpt lat="53.772478" lon="10.648951">
        <ele>58.112152</ele>
        <time>2021-07-10T11:49:42.815Z</time>
      </trkpt>
      <trkpt lat="53.772403" lon="10.649044">
        <ele>58.061085</ele>
        <time>2021-07-10T11:49:44.833Z</time>
      </trkpt>
      <trkpt lat="53.772329" lon="10.649147">
        <ele>58.008461</ele>
        <time>2021-07-10T11:49:46.827Z</time>
      </trkpt>
      <trkpt lat="53.772254" lon="10.649238">
        <ele>57.957775</ele>
        <time>2021-07-10T11:49:48.845Z</time>
      </trkpt>
      <trkpt lat="53.772178" lon="10.649336">
        <ele>57.905297</ele>
        <time>2021-07-10T11:49:50.845Z</time>
      </trkpt>
      <trkpt lat="53.772099" lon="10.649423">
        <ele>57.853530</ele>
        <time>2021-07-10T11:49:52.828Z</time>
      </trkpt>
      <trkpt lat="53.772017" lon="10.649505">
        <ele>57.801219</ele>
        <time>2021-07-10T11:49:54.832Z</time>
      </trkpt>
      <trkpt lat="53.771935" lon="10.649582">
        <ele>57.750708</ele>
        <time>2021-07-10T11:49:56.813Z</time>
      </trkpt>
      <trkpt lat="53.771851" lon="10.649647">
        <ele>57.715267</ele>
        <time>2021-07-10T11:49:58.806Z</time>
      </trkpt>
      <trkpt lat="53.771765" lon="10.649713">
        <ele>57.679034</ele>
        <time>2021-07-10T11:50:00.825Z</time>
      </trkpt>
      <trkpt lat="53.771676" lon="10.649791">
        <ele>57.640577</ele>
        <time>2021-07-10T11:50:02.817Z</time>
      </trkpt>
      <trkpt lat="53.771587" lon="10.649880">
        <ele>57.600910</ele>
        <time>2021-07-10T11:50:04.847Z</time>
      </trkpt>
      <trkpt lat="53.771497" lon="10.649963">
        <ele>57.561582</ele>
        <time>2021-07-10T11:50:06.823Z</time>
      </trkpt>
      <trkpt lat="53.771413" lon="10.650057">
        <ele>57.522940</ele>
        <time>2021-07-10T11:50:08.837Z</time>
      </trkpt>
      <trkpt lat="53.771170" lon="10.650263">
        <ele>57.418655</ele>
        <time>2021-07-10T11:50:39.828Z</time>
      </trkpt>
      <trkpt lat="53.771047" lon="10.650343">
        <ele>57.368095</ele>
        <time>2021-07-10T11:50:42.823Z</time>
      </trkpt>
      <trkpt lat="53.770954" lon="10.650399">
        <ele>57.330219</ele>
        <time>2021-07-10T11:50:44.821Z</time>
      </trkpt>
      <trkpt lat="53.770863" lon="10.650459">
        <ele>57.292746</ele>
        <time>2021-07-10T11:50:46.810Z</time>
      </trkpt>
      <trkpt lat="53.770771" lon="10.650518">
        <ele>57.254995</ele>
        <time>2021-07-10T11:50:48.813Z</time>
      </trkpt>
      <trkpt lat="53.770678" lon="10.650573">
        <ele>57.217195</ele>
        <time>2021-07-10T11:50:50.805Z</time>
      </trkpt>
      <trkpt lat="53.770587" lon="10.650626">
        <ele>57.180268</ele>
        <time>2021-07-10T11:50:52.796Z</time>
      </trkpt>
      <trkpt lat="53.770498" lon="10.650684">
        <ele>57.143675</ele>
        <time>2021-07-10T11:50:54.812Z</time>
      </trkpt>
      <trkpt lat="53.770409" lon="10.650729">
        <ele>57.108034</ele>
        <time>2021-07-10T11:50:56.818Z</time>
      </trkpt>
      <trkpt lat="53.770318" lon="10.650782">
        <ele>57.071107</ele>
        <time>2021-07-10T11:50:58.792Z</time>
      </trkpt>
      <trkpt lat="53.770190" lon="10.650858">
        <ele>57.132216</ele>
        <time>2021-07-10T11:51:01.803Z</time>
      </trkpt>
      <trkpt lat="53.770094" lon="10.650906">
        <ele>57.192976</ele>
        <time>2021-07-10T11:51:03.829Z</time>
      </trkpt>
      <trkpt lat="53.769999" lon="10.650954">
        <ele>57.253154</ele>
        <time>2021-07-10T11:51:05.795Z</time>
      </trkpt>
      <trkpt lat="53.769909" lon="10.651006">
        <ele>57.310879</ele>
        <time>2021-07-10T11:51:07.821Z</time>
      </trkpt>
      <trkpt lat="53.769814" lon="10.651063">
        <ele>57.372059</ele>
        <time>2021-07-10T11:51:09.818Z</time>
      </trkpt>
      <trkpt lat="53.769723" lon="10.651108">
        <ele>57.429604</ele>
        <time>2021-07-10T11:51:11.816Z</time>
      </trkpt>
      <trkpt lat="53.769628" lon="10.651147">
        <ele>57.488939</ele>
        <time>2021-07-10T11:51:13.824Z</time>
      </trkpt>
      <trkpt lat="53.769537" lon="10.651191">
        <ele>57.546384</ele>
        <time>2021-07-10T11:51:15.817Z</time>
      </trkpt>
      <trkpt lat="53.769443" lon="10.651246">
        <ele>57.606754</ele>
        <time>2021-07-10T11:51:17.822Z</time>
      </trkpt>
      <trkpt lat="53.769347" lon="10.651307">
        <ele>57.668997</ele>
        <time>2021-07-10T11:51:19.814Z</time>
      </trkpt>
      <trkpt lat="53.769252" lon="10.651364">
        <ele>57.730178</ele>
        <time>2021-07-10T11:51:21.822Z</time>
      </trkpt>
      <trkpt lat="53.769162" lon="10.651420">
        <ele>57.788382</ele>
        <time>2021-07-10T11:51:23.807Z</time>
      </trkpt>
      <trkpt lat="53.769072" lon="10.651476">
        <ele>57.846586</ele>
        <time>2021-07-10T11:51:25.809Z</time>
      </trkpt>
      <trkpt lat="53.768983" lon="10.651524">
        <ele>57.903284</ele>
        <time>2021-07-10T11:51:27.827Z</time>
      </trkpt>
      <trkpt lat="53.768896" lon="10.651572">
        <ele>57.958827</ele>
        <time>2021-07-10T11:51:29.825Z</time>
      </trkpt>
      <trkpt lat="53.768804" lon="10.651625">
        <ele>58.017816</ele>
        <time>2021-07-10T11:51:31.820Z</time>
      </trkpt>
      <trkpt lat="53.768713" lon="10.651686">
        <ele>58.077228</ele>
        <time>2021-07-10T11:51:33.803Z</time>
      </trkpt>
      <trkpt lat="53.768624" lon="10.651754">
        <ele>58.136501</ele>
        <time>2021-07-10T11:51:35.826Z</time>
      </trkpt>
      <trkpt lat="53.768534" lon="10.651810">
        <ele>58.080437</ele>
        <time>2021-07-10T11:51:37.811Z</time>
      </trkpt>
      <trkpt lat="53.768444" lon="10.651859">
        <ele>57.974296</ele>
        <time>2021-07-10T11:51:39.819Z</time>
      </trkpt>
      <trkpt lat="53.768352" lon="10.651916">
        <ele>57.864305</ele>
        <time>2021-07-10T11:51:41.828Z</time>
      </trkpt>
      <trkpt lat="53.768258" lon="10.651971">
        <ele>57.752644</ele>
        <time>2021-07-10T11:51:43.826Z</time>
      </trkpt>
      <trkpt lat="53.768162" lon="10.652015">
        <ele>57.640985</ele>
        <time>2021-07-10T11:51:45.811Z</time>
      </trkpt>
      <trkpt lat="53.768069" lon="10.652060">
        <ele>57.532392</ele>
        <time>2021-07-10T11:51:47.820Z</time>
      </trkpt>
      <trkpt lat="53.767936" lon="10.652103">
        <ele>57.380378</ele>
        <time>2021-07-10T11:51:50.808Z</time>
      </trkpt>
      <trkpt lat="53.767808" lon="10.652147">
        <ele>57.233743</ele>
        <time>2021-07-10T11:51:53.812Z</time>
      </trkpt>
      <trkpt lat="53.767713" lon="10.652170">
        <ele>57.126005</ele>
        <time>2021-07-10T11:51:55.807Z</time>
      </trkpt>
      <trkpt lat="53.767619" lon="10.652185">
        <ele>57.020007</ele>
        <time>2021-07-10T11:51:57.817Z</time>
      </trkpt>
      <trkpt lat="53.767525" lon="10.652189">
        <ele>56.914445</ele>
        <time>2021-07-10T11:51:59.828Z</time>
      </trkpt>
      <trkpt lat="53.767434" lon="10.652195">
        <ele>56.812206</ele>
        <time>2021-07-10T11:52:01.817Z</time>
      </trkpt>
      <trkpt lat="53.767341" lon="10.652196">
        <ele>56.707798</ele>
        <time>2021-07-10T11:52:03.834Z</time>
      </trkpt>
      <trkpt lat="53.767226" lon="10.652210">
        <ele>56.578359</ele>
        <time>2021-07-10T11:52:05.819Z</time>
      </trkpt>
      <trkpt lat="53.767121" lon="10.652212">
        <ele>56.460473</ele>
        <time>2021-07-10T11:52:07.816Z</time>
      </trkpt>
      <trkpt lat="53.766987" lon="10.652220">
        <ele>56.309945</ele>
        <time>2021-07-10T11:52:10.834Z</time>
      </trkpt>
      <trkpt lat="53.766861" lon="10.652232">
        <ele>56.168267</ele>
        <time>2021-07-10T11:52:13.816Z</time>
      </trkpt>
      <trkpt lat="53.766750" lon="10.652267">
        <ele>56.081448</ele>
        <time>2021-07-10T11:52:15.829Z</time>
      </trkpt>
      <trkpt lat="53.766648" lon="10.652282">
        <ele>56.015422</ele>
        <time>2021-07-10T11:52:17.819Z</time>
      </trkpt>
      <trkpt lat="53.766533" lon="10.652272">
        <ele>55.941163</ele>
        <time>2021-07-10T11:52:20.824Z</time>
      </trkpt>
      <trkpt lat="53.766421" lon="10.652263">
        <ele>55.868855</ele>
        <time>2021-07-10T11:52:23.827Z</time>
      </trkpt>
      <trkpt lat="53.766329" lon="10.652255">
        <ele>55.809448</ele>
        <time>2021-07-10T11:52:25.830Z</time>
      </trkpt>
      <trkpt lat="53.766238" lon="10.652277">
        <ele>55.750167</ele>
        <time>2021-07-10T11:52:27.816Z</time>
      </trkpt>
      <trkpt lat="53.766107" lon="10.652307">
        <ele>55.664918</ele>
        <time>2021-07-10T11:52:30.828Z</time>
      </trkpt>
      <trkpt lat="53.766016" lon="10.652329">
        <ele>55.605638</ele>
        <time>2021-07-10T11:52:32.817Z</time>
      </trkpt>
      <trkpt lat="53.765924" lon="10.652356">
        <ele>55.545423</ele>
        <time>2021-07-10T11:52:34.824Z</time>
      </trkpt>
      <trkpt lat="53.765827" lon="10.652394">
        <ele>55.481214</ele>
        <time>2021-07-10T11:52:36.822Z</time>
      </trkpt>
      <trkpt lat="53.765736" lon="10.652436">
        <ele>55.420385</ele>
        <time>2021-07-10T11:52:38.832Z</time>
      </trkpt>
      <trkpt lat="53.765648" lon="10.652486">
        <ele>55.360521</ele>
        <time>2021-07-10T11:52:40.810Z</time>
      </trkpt>
      <trkpt lat="53.765547" lon="10.652554">
        <ele>55.290420</ele>
        <time>2021-07-10T11:52:42.827Z</time>
      </trkpt>
      <trkpt lat="53.765455" lon="10.652619">
        <ele>55.226125</ele>
        <time>2021-07-10T11:52:44.826Z</time>
      </trkpt>
      <trkpt lat="53.765365" lon="10.652690">
        <ele>55.162086</ele>
        <time>2021-07-10T11:52:46.813Z</time>
      </trkpt>
      <trkpt lat="53.765282" lon="10.652768">
        <ele>55.100858</ele>
        <time>2021-07-10T11:52:48.818Z</time>
      </trkpt>
      <trkpt lat="53.765199" lon="10.652852">
        <ele>55.038486</ele>
        <time>2021-07-10T11:52:50.810Z</time>
      </trkpt>
      <trkpt lat="53.765112" lon="10.652941">
        <ele>54.979095</ele>
        <time>2021-07-10T11:52:52.818Z</time>
      </trkpt>
      <trkpt lat="53.765031" lon="10.653027">
        <ele>55.068001</ele>
        <time>2021-07-10T11:52:54.803Z</time>
      </trkpt>
      <trkpt lat="53.764942" lon="10.653133">
        <ele>55.169191</ele>
        <time>2021-07-10T11:52:56.825Z</time>
      </trkpt>
      <trkpt lat="53.764858" lon="10.653243">
        <ele>55.267947</ele>
        <time>2021-07-10T11:52:58.833Z</time>
      </trkpt>
      <trkpt lat="53.764782" lon="10.653335">
        <ele>55.354829</ele>
        <time>2021-07-10T11:53:00.844Z</time>
      </trkpt>
      <trkpt lat="53.764702" lon="10.653418">
        <ele>55.442076</ele>
        <time>2021-07-10T11:53:02.808Z</time>
      </trkpt>
      <trkpt lat="53.764618" lon="10.653500">
        <ele>55.532239</ele>
        <time>2021-07-10T11:53:04.815Z</time>
      </trkpt>
      <trkpt lat="53.764535" lon="10.653577">
        <ele>55.620244</ele>
        <time>2021-07-10T11:53:06.830Z</time>
      </trkpt>
      <trkpt lat="53.764301" lon="10.653755">
        <ele>55.858771</ele>
        <time>2021-07-10T11:53:44.821Z</time>
      </trkpt>
      <trkpt lat="53.764197" lon="10.653833">
        <ele>55.964535</ele>
        <time>2021-07-10T11:53:47.805Z</time>
      </trkpt>
      <trkpt lat="53.764079" lon="10.653929">
        <ele>56.086264</ele>
        <time>2021-07-10T11:53:50.821Z</time>
      </trkpt>
      <trkpt lat="53.763990" lon="10.653989">
        <ele>56.175334</ele>
        <time>2021-07-10T11:53:52.811Z</time>
      </trkpt>
      <trkpt lat="53.763902" lon="10.654042">
        <ele>56.262177</ele>
        <time>2021-07-10T11:53:54.828Z</time>
      </trkpt>
      <trkpt lat="53.763812" lon="10.654102">
        <ele>56.352112</ele>
        <time>2021-07-10T11:53:56.834Z</time>
      </trkpt>
      <trkpt lat="53.763723" lon="10.654160">
        <ele>56.440781</ele>
        <time>2021-07-10T11:53:58.839Z</time>
      </trkpt>
      <trkpt lat="53.763634" lon="10.654218">
        <ele>56.529450</ele>
        <time>2021-07-10T11:54:00.826Z</time>
      </trkpt>
      <trkpt lat="53.763545" lon="10.654277">
        <ele>56.618319</ele>
        <time>2021-07-10T11:54:02.834Z</time>
      </trkpt>
      <trkpt lat="53.763454" lon="10.654338">
        <ele>56.586245</ele>
        <time>2021-07-10T11:54:04.810Z</time>
      </trkpt>
      <trkpt lat="53.763364" lon="10.654398">
        <ele>56.496759</ele>
        <time>2021-07-10T11:54:06.818Z</time>
      </trkpt>
      <trkpt lat="53.763271" lon="10.654456">
        <ele>56.405068</ele>
        <time>2021-07-10T11:54:08.814Z</time>
      </trkpt>
      <trkpt lat="53.763179" lon="10.654520">
        <ele>56.313049</ele>
        <time>2021-07-10T11:54:10.835Z</time>
      </trkpt>
      <trkpt lat="53.763087" lon="10.654581">
        <ele>56.221640</ele>
        <time>2021-07-10T11:54:12.828Z</time>
      </trkpt>
      <trkpt lat="53.762994" lon="10.654647">
        <ele>56.128346</ele>
        <time>2021-07-10T11:54:14.825Z</time>
      </trkpt>
      <trkpt lat="53.762904" lon="10.654714">
        <ele>56.037386</ele>
        <time>2021-07-10T11:54:16.817Z</time>
      </trkpt>
      <trkpt lat="53.762811" lon="10.654776">
        <ele>55.944917</ele>
        <time>2021-07-10T11:54:18.832Z</time>
      </trkpt>
      <trkpt lat="53.762720" lon="10.654836">
        <ele>55.854569</ele>
        <time>2021-07-10T11:54:20.835Z</time>
      </trkpt>
      <trkpt lat="53.762629" lon="10.654901">
        <ele>55.763192</ele>
        <time>2021-07-10T11:54:22.819Z</time>
      </trkpt>
      <trkpt lat="53.762537" lon="10.654975">
        <ele>55.668956</ele>
        <time>2021-07-10T11:54:24.826Z</time>
      </trkpt>
      <trkpt lat="53.762442" lon="10.655060">
        <ele>55.569541</ele>
        <time>2021-07-10T11:54:26.844Z</time>
      </trkpt>
      <trkpt lat="53.762355" lon="10.655161">
        <ele>55.471933</ele>
        <time>2021-07-10T11:54:28.846Z</time>
      </trkpt>
      <trkpt lat="53.762266" lon="10.655255">
        <ele>55.374874</ele>
        <time>2021-07-10T11:54:30.827Z</time>
      </trkpt>
      <trkpt lat="53.762189" lon="10.655370">
        <ele>55.279856</ele>
        <time>2021-07-10T11:54:32.815Z</time>
      </trkpt>
      <trkpt lat="53.762118" lon="10.655477">
        <ele>55.191894</ele>
        <time>2021-07-10T11:54:34.828Z</time>
      </trkpt>
      <trkpt lat="53.762025" lon="10.655638">
        <ele>55.068799</ele>
        <time>2021-07-10T11:54:37.812Z</time>
      </trkpt>
      <trkpt lat="53.761996" lon="10.655855">
        <ele>54.988145</ele>
        <time>2021-07-10T11:54:40.819Z</time>
      </trkpt>
      <trkpt lat="53.762028" lon="10.656079">
        <ele>55.003150</ele>
        <time>2021-07-10T11:54:43.822Z</time>
      </trkpt>
      <trkpt lat="53.762050" lon="10.656230">
        <ele>55.013276</ele>
        <time>2021-07-10T11:54:45.819Z</time>
      </trkpt>
      <trkpt lat="53.762071" lon="10.656390">
        <ele>55.023948</ele>
        <time>2021-07-10T11:54:47.813Z</time>
      </trkpt>
      <trkpt lat="53.762092" lon="10.656549">
        <ele>55.034556</ele>
        <time>2021-07-10T11:54:49.824Z</time>
      </trkpt>
      <trkpt lat="53.762117" lon="10.656770">
        <ele>55.049207</ele>
        <time>2021-07-10T11:54:52.824Z</time>
      </trkpt>
      <trkpt lat="53.762130" lon="10.656924">
        <ele>55.059336</ele>
        <time>2021-07-10T11:54:54.820Z</time>
      </trkpt>
      <trkpt lat="53.762164" lon="10.657147">
        <ele>55.074331</ele>
        <time>2021-07-10T11:54:57.798Z</time>
      </trkpt>
      <trkpt lat="53.762179" lon="10.657299">
        <ele>55.084365</ele>
        <time>2021-07-10T11:54:59.824Z</time>
      </trkpt>
      <trkpt lat="53.762193" lon="10.657513">
        <ele>55.098384</ele>
        <time>2021-07-10T11:55:02.830Z</time>
      </trkpt>
      <trkpt lat="53.762213" lon="10.657725">
        <ele>55.112362</ele>
        <time>2021-07-10T11:55:05.804Z</time>
      </trkpt>
      <trkpt lat="53.762229" lon="10.657929">
        <ele>55.125761</ele>
        <time>2021-07-10T11:55:08.847Z</time>
      </trkpt>
      <trkpt lat="53.762239" lon="10.658109">
        <ele>55.137533</ele>
        <time>2021-07-10T11:55:11.821Z</time>
      </trkpt>
      <trkpt lat="53.762253" lon="10.658269">
        <ele>55.148064</ele>
        <time>2021-07-10T11:55:14.842Z</time>
      </trkpt>
      <trkpt lat="53.762288" lon="10.658428">
        <ele>55.159112</ele>
        <time>2021-07-10T11:55:21.852Z</time>
      </trkpt>
      <trkpt lat="53.762340" lon="10.658603">
        <ele>55.171865</ele>
        <time>2021-07-10T11:55:26.821Z</time>
      </trkpt>
      <trkpt lat="53.762388" lon="10.658757">
        <ele>55.194667</ele>
        <time>2021-07-10T11:55:29.836Z</time>
      </trkpt>
      <trkpt lat="53.762431" lon="10.658911">
        <ele>55.303273</ele>
        <time>2021-07-10T11:55:32.814Z</time>
      </trkpt>
      <trkpt lat="53.762474" lon="10.659082">
        <ele>55.421771</ele>
        <time>2021-07-10T11:55:35.848Z</time>
      </trkpt>
      <trkpt lat="53.762520" lon="10.659254">
        <ele>55.542154</ele>
        <time>2021-07-10T11:55:38.836Z</time>
      </trkpt>
      <trkpt lat="53.762569" lon="10.659429">
        <ele>55.665632</ele>
        <time>2021-07-10T11:55:41.836Z</time>
      </trkpt>
      <trkpt lat="53.762617" lon="10.659600">
        <ele>55.786344</ele>
        <time>2021-07-10T11:55:44.835Z</time>
      </trkpt>
      <trkpt lat="53.762663" lon="10.659763">
        <ele>55.901522</ele>
        <time>2021-07-10T11:55:47.827Z</time>
      </trkpt>
      <trkpt lat="53.762708" lon="10.659929">
        <ele>56.017975</ele>
        <time>2021-07-10T11:55:50.820Z</time>
      </trkpt>
      <trkpt lat="53.762750" lon="10.660088">
        <ele>56.129027</ele>
        <time>2021-07-10T11:55:53.842Z</time>
      </trkpt>
      <trkpt lat="53.762773" lon="10.660244">
        <ele>56.231551</ele>
        <time>2021-07-10T11:56:02.833Z</time>
      </trkpt>
      <trkpt lat="53.762733" lon="10.660400">
        <ele>56.339983</ele>
        <time>2021-07-10T11:56:07.821Z</time>
      </trkpt>
      <trkpt lat="53.762777" lon="10.660557">
        <ele>56.450779</ele>
        <time>2021-07-10T11:56:10.850Z</time>
      </trkpt>
      <trkpt lat="53.762833" lon="10.660741">
        <ele>56.582748</ele>
        <time>2021-07-10T11:56:13.813Z</time>
      </trkpt>
      <trkpt lat="53.762888" lon="10.660938">
        <ele>56.721675</ele>
        <time>2021-07-10T11:56:16.845Z</time>
      </trkpt>
      <trkpt lat="53.762949" lon="10.661136">
        <ele>56.864052</ele>
        <time>2021-07-10T11:56:19.811Z</time>
      </trkpt>
      <trkpt lat="53.762988" lon="10.661273">
        <ele>56.961014</ele>
        <time>2021-07-10T11:56:21.826Z</time>
      </trkpt>
      <trkpt lat="53.763049" lon="10.661482">
        <ele>57.109646</ele>
        <time>2021-07-10T11:56:24.841Z</time>
      </trkpt>
      <trkpt lat="53.763093" lon="10.661631">
        <ele>57.134763</ele>
        <time>2021-07-10T11:56:26.843Z</time>
      </trkpt>
      <trkpt lat="53.763142" lon="10.661766">
        <ele>57.148361</ele>
        <time>2021-07-10T11:56:28.819Z</time>
      </trkpt>
      <trkpt lat="53.763189" lon="10.661898">
        <ele>57.161588</ele>
        <time>2021-07-10T11:56:30.817Z</time>
      </trkpt>
      <trkpt lat="53.763243" lon="10.662031">
        <ele>57.175437</ele>
        <time>2021-07-10T11:56:32.845Z</time>
      </trkpt>
      <trkpt lat="53.763295" lon="10.662158">
        <ele>57.188698</ele>
        <time>2021-07-10T11:56:34.830Z</time>
      </trkpt>
      <trkpt lat="53.763353" lon="10.662279">
        <ele>57.202070</ele>
        <time>2021-07-10T11:56:36.811Z</time>
      </trkpt>
      <trkpt lat="53.763417" lon="10.662400">
        <ele>57.216007</ele>
        <time>2021-07-10T11:56:38.821Z</time>
      </trkpt>
      <trkpt lat="53.763482" lon="10.662516">
        <ele>57.229726</ele>
        <time>2021-07-10T11:56:40.847Z</time>
      </trkpt>
      <trkpt lat="53.763545" lon="10.662624">
        <ele>57.242750</ele>
        <time>2021-07-10T11:56:42.819Z</time>
      </trkpt>
      <trkpt lat="53.763611" lon="10.662732">
        <ele>57.256084</ele>
        <time>2021-07-10T11:56:44.808Z</time>
      </trkpt>
      <trkpt lat="53.763680" lon="10.662843">
        <ele>57.269910</ele>
        <time>2021-07-10T11:56:46.821Z</time>
      </trkpt>
      <trkpt lat="53.763785" lon="10.662988">
        <ele>57.289592</ele>
        <time>2021-07-10T11:56:49.817Z</time>
      </trkpt>
      <trkpt lat="53.763856" lon="10.663088">
        <ele>57.303007</ele>
        <time>2021-07-10T11:56:51.826Z</time>
      </trkpt>
      <trkpt lat="53.763930" lon="10.663193">
        <ele>57.317032</ele>
        <time>2021-07-10T11:56:53.846Z</time>
      </trkpt>
      <trkpt lat="53.764012" lon="10.663286">
        <ele>57.331367</ele>
        <time>2021-07-10T11:56:55.839Z</time>
      </trkpt>
      <trkpt lat="53.764096" lon="10.663380">
        <ele>57.345991</ele>
        <time>2021-07-10T11:56:57.843Z</time>
      </trkpt>
      <trkpt lat="53.764175" lon="10.663462">
        <ele>57.359450</ele>
        <time>2021-07-10T11:56:59.824Z</time>
      </trkpt>
      <trkpt lat="53.764258" lon="10.663543">
        <ele>57.373364</ele>
        <time>2021-07-10T11:57:01.839Z</time>
      </trkpt>
      <trkpt lat="53.764346" lon="10.663621">
        <ele>57.386031</ele>
        <time>2021-07-10T11:57:03.838Z</time>
      </trkpt>
      <trkpt lat="53.764434" lon="10.663695">
        <ele>57.394680</ele>
        <time>2021-07-10T11:57:05.841Z</time>
      </trkpt>
      <trkpt lat="53.764550" lon="10.663806">
        <ele>57.406409</ele>
        <time>2021-07-10T11:57:08.851Z</time>
      </trkpt>
      <trkpt lat="53.764640" lon="10.663901">
        <ele>57.415745</ele>
        <time>2021-07-10T11:57:10.836Z</time>
      </trkpt>
      <trkpt lat="53.764718" lon="10.664000">
        <ele>57.424327</ele>
        <time>2021-07-10T11:57:12.820Z</time>
      </trkpt>
      <trkpt lat="53.764792" lon="10.664110">
        <ele>57.432997</ele>
        <time>2021-07-10T11:57:14.816Z</time>
      </trkpt>
      <trkpt lat="53.764853" lon="10.664246">
        <ele>57.441878</ele>
        <time>2021-07-10T11:57:16.822Z</time>
      </trkpt>
      <trkpt lat="53.764983" lon="10.664587">
        <ele>57.462987</ele>
        <time>2021-07-10T11:58:00.844Z</time>
      </trkpt>
      <trkpt lat="53.765033" lon="10.664727">
        <ele>57.471497</ele>
        <time>2021-07-10T11:58:03.821Z</time>
      </trkpt>
      <trkpt lat="53.765089" lon="10.664889">
        <ele>57.481259</ele>
        <time>2021-07-10T11:58:06.832Z</time>
      </trkpt>
      <trkpt lat="53.765144" lon="10.665054">
        <ele>57.491114</ele>
        <time>2021-07-10T11:58:09.811Z</time>
      </trkpt>
      <trkpt lat="53.765200" lon="10.665229">
        <ele>57.501466</ele>
        <time>2021-07-10T11:58:12.818Z</time>
      </trkpt>
      <trkpt lat="53.765263" lon="10.665411">
        <ele>57.512438</ele>
        <time>2021-07-10T11:58:15.817Z</time>
      </trkpt>
      <trkpt lat="53.765318" lon="10.665586">
        <ele>57.522749</ele>
        <time>2021-07-10T11:58:18.800Z</time>
      </trkpt>
      <trkpt lat="53.765371" lon="10.665744">
        <ele>57.532199</ele>
        <time>2021-07-10T11:58:21.824Z</time>
      </trkpt>
      <trkpt lat="53.765465" lon="10.666060">
        <ele>57.592010</ele>
        <time>2021-07-10T11:59:00.832Z</time>
      </trkpt>
      <trkpt lat="53.765526" lon="10.666190">
        <ele>57.640462</ele>
        <time>2021-07-10T11:59:03.817Z</time>
      </trkpt>
      <trkpt lat="53.765609" lon="10.666250">
        <ele>57.685036</ele>
        <time>2021-07-10T11:59:06.850Z</time>
      </trkpt>
      <trkpt lat="53.765699" lon="10.666237">
        <ele>57.729644</ele>
        <time>2021-07-10T11:59:09.834Z</time>
      </trkpt>
      <trkpt lat="53.765778" lon="10.666147">
        <ele>57.776679</ele>
        <time>2021-07-10T11:59:12.827Z</time>
      </trkpt>
      <trkpt lat="53.765874" lon="10.666013">
        <ele>57.838142</ele>
        <time>2021-07-10T11:59:15.807Z</time>
      </trkpt>
      <trkpt lat="53.765978" lon="10.665887">
        <ele>57.901314</ele>
        <time>2021-07-10T11:59:18.798Z</time>
      </trkpt>
      <trkpt lat="53.766078" lon="10.665775">
        <ele>57.960540</ele>
        <time>2021-07-10T11:59:21.824Z</time>
      </trkpt>
      <trkpt lat="53.766172" lon="10.665680">
        <ele>58.014614</ele>
        <time>2021-07-10T11:59:24.838Z</time>
      </trkpt>
      <trkpt lat="53.766276" lon="10.665561">
        <ele>58.076619</ele>
        <time>2021-07-10T11:59:27.816Z</time>
      </trkpt>
      <trkpt lat="53.766376" lon="10.665448">
        <ele>58.136006</ele>
        <time>2021-07-10T11:59:30.829Z</time>
      </trkpt>
      <trkpt lat="53.766477" lon="10.665341">
        <ele>58.194857</ele>
        <time>2021-07-10T11:59:33.825Z</time>
      </trkpt>
      <trkpt lat="53.766554" lon="10.665261">
        <ele>58.239482</ele>
        <time>2021-07-10T11:59:35.832Z</time>
      </trkpt>
      <trkpt lat="53.766671" lon="10.665138">
        <ele>58.307508</ele>
        <time>2021-07-10T11:59:38.830Z</time>
      </trkpt>
      <trkpt lat="53.766750" lon="10.665040">
        <ele>58.355886</ele>
        <time>2021-07-10T11:59:40.840Z</time>
      </trkpt>
      <trkpt lat="53.766850" lon="10.664927">
        <ele>58.415274</ele>
        <time>2021-07-10T11:59:43.816Z</time>
      </trkpt>
      <trkpt lat="53.766944" lon="10.664836">
        <ele>58.419547</ele>
        <time>2021-07-10T11:59:46.830Z</time>
      </trkpt>
      <trkpt lat="53.767035" lon="10.664766">
        <ele>58.406423</ele>
        <time>2021-07-10T11:59:51.846Z</time>
      </trkpt>
      <trkpt lat="53.767132" lon="10.664777">
        <ele>58.393659</ele>
        <time>2021-07-10T11:59:56.844Z</time>
      </trkpt>
      <trkpt lat="53.767226" lon="10.664711">
        <ele>58.380298</ele>
        <time>2021-07-10T11:59:59.823Z</time>
      </trkpt>
      <trkpt lat="53.767333" lon="10.664614">
        <ele>58.364360</ele>
        <time>2021-07-10T12:00:02.835Z</time>
      </trkpt>
      <trkpt lat="53.767412" lon="10.664541">
        <ele>58.352542</ele>
        <time>2021-07-10T12:00:04.825Z</time>
      </trkpt>
      <trkpt lat="53.767516" lon="10.664425">
        <ele>58.336188</ele>
        <time>2021-07-10T12:00:07.841Z</time>
      </trkpt>
      <trkpt lat="53.767629" lon="10.664315">
        <ele>58.319072</ele>
        <time>2021-07-10T12:00:10.831Z</time>
      </trkpt>
      <trkpt lat="53.767744" lon="10.664203">
        <ele>58.301652</ele>
        <time>2021-07-10T12:00:13.835Z</time>
      </trkpt>
      <trkpt lat="53.767822" lon="10.664116">
        <ele>58.289386</ele>
        <time>2021-07-10T12:00:15.838Z</time>
      </trkpt>
      <trkpt lat="53.767901" lon="10.664037">
        <ele>58.277338</ele>
        <time>2021-07-10T12:00:17.835Z</time>
      </trkpt>
      <trkpt lat="53.767983" lon="10.663953">
        <ele>58.264753</ele>
        <time>2021-07-10T12:00:19.810Z</time>
      </trkpt>
      <trkpt lat="53.768065" lon="10.663869">
        <ele>58.252168</ele>
        <time>2021-07-10T12:00:21.848Z</time>
      </trkpt>
      <trkpt lat="53.768143" lon="10.663791">
        <ele>58.240272</ele>
        <time>2021-07-10T12:00:23.857Z</time>
      </trkpt>
      <trkpt lat="53.768221" lon="10.663704">
        <ele>58.228007</ele>
        <time>2021-07-10T12:00:25.849Z</time>
      </trkpt>
      <trkpt lat="53.768300" lon="10.663619">
        <ele>58.215715</ele>
        <time>2021-07-10T12:00:27.836Z</time>
      </trkpt>
      <trkpt lat="53.768382" lon="10.663534">
        <ele>58.203090</ele>
        <time>2021-07-10T12:00:29.847Z</time>
      </trkpt>
      <trkpt lat="53.768460" lon="10.663451">
        <ele>58.186202</ele>
        <time>2021-07-10T12:00:31.811Z</time>
      </trkpt>
      <trkpt lat="53.768543" lon="10.663368">
        <ele>58.151491</ele>
        <time>2021-07-10T12:00:33.839Z</time>
      </trkpt>
      <trkpt lat="53.768626" lon="10.663276">
        <ele>58.115768</ele>
        <time>2021-07-10T12:00:35.832Z</time>
      </trkpt>
      <trkpt lat="53.768712" lon="10.663187">
        <ele>58.079474</ele>
        <time>2021-07-10T12:00:37.850Z</time>
      </trkpt>
      <trkpt lat="53.768799" lon="10.663094">
        <ele>58.042424</ele>
        <time>2021-07-10T12:00:39.844Z</time>
      </trkpt>
      <trkpt lat="53.768890" lon="10.663000">
        <ele>58.004039</ele>
        <time>2021-07-10T12:00:41.826Z</time>
      </trkpt>
      <trkpt lat="53.768977" lon="10.662910">
        <ele>57.967327</ele>
        <time>2021-07-10T12:00:43.836Z</time>
      </trkpt>
      <trkpt lat="53.769062" lon="10.662818">
        <ele>57.931000</ele>
        <time>2021-07-10T12:00:45.840Z</time>
      </trkpt>
      <trkpt lat="53.769150" lon="10.662732">
        <ele>57.894413</ele>
        <time>2021-07-10T12:00:47.846Z</time>
      </trkpt>
      <trkpt lat="53.769233" lon="10.662642">
        <ele>57.858921</ele>
        <time>2021-07-10T12:00:49.837Z</time>
      </trkpt>
      <trkpt lat="53.769314" lon="10.662563">
        <ele>57.825262</ele>
        <time>2021-07-10T12:00:51.833Z</time>
      </trkpt>
      <trkpt lat="53.769403" lon="10.662483">
        <ele>57.788979</ele>
        <time>2021-07-10T12:00:53.836Z</time>
      </trkpt>
      <trkpt lat="53.769489" lon="10.662410">
        <ele>57.754339</ele>
        <time>2021-07-10T12:00:55.845Z</time>
      </trkpt>
      <trkpt lat="53.769579" lon="10.662334">
        <ele>57.718126</ele>
        <time>2021-07-10T12:00:57.831Z</time>
      </trkpt>
      <trkpt lat="53.769670" lon="10.662261">
        <ele>57.681869</ele>
        <time>2021-07-10T12:00:59.837Z</time>
      </trkpt>
      <trkpt lat="53.769760" lon="10.662191">
        <ele>57.646207</ele>
        <time>2021-07-10T12:01:01.837Z</time>
      </trkpt>
      <trkpt lat="53.769851" lon="10.662119">
        <ele>57.610041</ele>
        <time>2021-07-10T12:01:03.831Z</time>
      </trkpt>
      <trkpt lat="53.769944" lon="10.662050">
        <ele>57.573481</ele>
        <time>2021-07-10T12:01:05.832Z</time>
      </trkpt>
      <trkpt lat="53.770035" lon="10.661978">
        <ele>57.556232</ele>
        <time>2021-07-10T12:01:07.840Z</time>
      </trkpt>
      <trkpt lat="53.770132" lon="10.661900">
        <ele>57.599911</ele>
        <time>2021-07-10T12:01:09.837Z</time>
      </trkpt>
      <trkpt lat="53.770227" lon="10.661819">
        <ele>57.643175</ele>
        <time>2021-07-10T12:01:11.838Z</time>
      </trkpt>
      <trkpt lat="53.770319" lon="10.661741">
        <ele>57.685026</ele>
        <time>2021-07-10T12:01:13.852Z</time>
      </trkpt>
      <trkpt lat="53.770416" lon="10.661667">
        <ele>57.728300</ele>
        <time>2021-07-10T12:01:15.808Z</time>
      </trkpt>
      <trkpt lat="53.770508" lon="10.661591">
        <ele>57.769938</ele>
        <time>2021-07-10T12:01:17.830Z</time>
      </trkpt>
      <trkpt lat="53.770600" lon="10.661521">
        <ele>57.810963</ele>
        <time>2021-07-10T12:01:19.836Z</time>
      </trkpt>
      <trkpt lat="53.770691" lon="10.661448">
        <ele>57.851921</ele>
        <time>2021-07-10T12:01:21.824Z</time>
      </trkpt>
      <trkpt lat="53.770783" lon="10.661374">
        <ele>57.893350</ele>
        <time>2021-07-10T12:01:23.826Z</time>
      </trkpt>
      <trkpt lat="53.770875" lon="10.661301">
        <ele>57.934676</ele>
        <time>2021-07-10T12:01:25.830Z</time>
      </trkpt>
      <trkpt lat="53.770964" lon="10.661230">
        <ele>57.974694</ele>
        <time>2021-07-10T12:01:27.833Z</time>
      </trkpt>
      <trkpt lat="53.771056" lon="10.661155">
        <ele>58.016226</ele>
        <time>2021-07-10T12:01:29.831Z</time>
      </trkpt>
      <trkpt lat="53.771148" lon="10.661080">
        <ele>58.057759</ele>
        <time>2021-07-10T12:01:31.839Z</time>
      </trkpt>
      <trkpt lat="53.771237" lon="10.661012">
        <ele>58.097474</ele>
        <time>2021-07-10T12:01:33.828Z</time>
      </trkpt>
      <trkpt lat="53.771323" lon="10.660945">
        <ele>58.135980</ele>
        <time>2021-07-10T12:01:35.834Z</time>
      </trkpt>
      <trkpt lat="53.771410" lon="10.660876">
        <ele>58.175056</ele>
        <time>2021-07-10T12:01:37.828Z</time>
      </trkpt>
      <trkpt lat="53.771500" lon="10.660803">
        <ele>58.215648</ele>
        <time>2021-07-10T12:01:39.813Z</time>
      </trkpt>
      <trkpt lat="53.771591" lon="10.660736">
        <ele>58.256009</ele>
        <time>2021-07-10T12:01:41.842Z</time>
      </trkpt>
      <trkpt lat="53.771675" lon="10.660665">
        <ele>58.259034</ele>
        <time>2021-07-10T12:01:43.843Z</time>
      </trkpt>
      <trkpt lat="53.771752" lon="10.660564">
        <ele>58.214196</ele>
        <time>2021-07-10T12:01:45.834Z</time>
      </trkpt>
      <trkpt lat="53.771811" lon="10.660442">
        <ele>58.171320</ele>
        <time>2021-07-10T12:01:47.837Z</time>
      </trkpt>
      <trkpt lat="53.771865" lon="10.660316">
        <ele>58.128986</ele>
        <time>2021-07-10T12:01:49.833Z</time>
      </trkpt>
      <trkpt lat="53.771961" lon="10.660170">
        <ele>58.069582</ele>
        <time>2021-07-10T12:01:52.839Z</time>
      </trkpt>
      <trkpt lat="53.772039" lon="10.660050">
        <ele>58.021065</ele>
        <time>2021-07-10T12:01:55.845Z</time>
      </trkpt>
      <trkpt lat="53.772183" lon="10.659933">
        <ele>57.947549</ele>
        <time>2021-07-10T12:02:17.844Z</time>
      </trkpt>
      <trkpt lat="53.772283" lon="10.659996">
        <ele>57.898440</ele>
        <time>2021-07-10T12:02:21.814Z</time>
      </trkpt>
      <trkpt lat="53.772393" lon="10.660054">
        <ele>57.845415</ele>
        <time>2021-07-10T12:02:24.834Z</time>
      </trkpt>
      <trkpt lat="53.772518" lon="10.660126">
        <ele>57.784646</ele>
        <time>2021-07-10T12:02:27.836Z</time>
      </trkpt>
      <trkpt lat="53.772629" lon="10.660189">
        <ele>57.730764</ele>
        <time>2021-07-10T12:02:30.836Z</time>
      </trkpt>
      <trkpt lat="53.772756" lon="10.660266">
        <ele>57.668677</ele>
        <time>2021-07-10T12:02:33.850Z</time>
      </trkpt>
      <trkpt lat="53.772885" lon="10.660346">
        <ele>57.605447</ele>
        <time>2021-07-10T12:02:36.858Z</time>
      </trkpt>
      <trkpt lat="53.772970" lon="10.660398">
        <ele>57.563850</ele>
        <time>2021-07-10T12:02:38.820Z</time>
      </trkpt>
      <trkpt lat="53.773093" lon="10.660469">
        <ele>57.504040</ele>
        <time>2021-07-10T12:02:41.835Z</time>
      </trkpt>
      <trkpt lat="53.773182" lon="10.660523">
        <ele>57.460527</ele>
        <time>2021-07-10T12:02:43.828Z</time>
      </trkpt>
      <trkpt lat="53.773273" lon="10.660573">
        <ele>57.221484</ele>
        <time>2021-07-10T12:02:45.836Z</time>
      </trkpt>
      <trkpt lat="53.773366" lon="10.660619">
        <ele>56.916811</ele>
        <time>2021-07-10T12:02:47.860Z</time>
      </trkpt>
      <trkpt lat="53.773455" lon="10.660671">
        <ele>56.620741</ele>
        <time>2021-07-10T12:02:49.845Z</time>
      </trkpt>
      <trkpt lat="53.773575" lon="10.660746">
        <ele>56.218489</ele>
        <time>2021-07-10T12:02:52.842Z</time>
      </trkpt>
      <trkpt lat="53.773680" lon="10.660792">
        <ele>55.877434</ele>
        <time>2021-07-10T12:02:55.836Z</time>
      </trkpt>
      <trkpt lat="53.773792" lon="10.660833">
        <ele>55.517107</ele>
        <time>2021-07-10T12:02:58.832Z</time>
      </trkpt>
      <trkpt lat="53.773876" lon="10.660887">
        <ele>55.234553</ele>
        <time>2021-07-10T12:03:01.840Z</time>
      </trkpt>
      <trkpt lat="53.773953" lon="10.660971">
        <ele>54.946474</ele>
        <time>2021-07-10T12:03:04.841Z</time>
      </trkpt>
      <trkpt lat="53.774054" lon="10.661100">
        <ele>54.548568</ele>
        <time>2021-07-10T12:03:07.836Z</time>
      </trkpt>
      <trkpt lat="53.774120" lon="10.661213">
        <ele>54.253332</ele>
        <time>2021-07-10T12:03:10.849Z</time>
      </trkpt>
      <trkpt lat="53.774211" lon="10.661345">
        <ele>53.876439</ele>
        <time>2021-07-10T12:03:13.844Z</time>
      </trkpt>
      <trkpt lat="53.774258" lon="10.661530">
        <ele>53.502237</ele>
        <time>2021-07-10T12:03:17.833Z</time>
      </trkpt>
      <trkpt lat="53.774317" lon="10.661665">
        <ele>53.190222</ele>
        <time>2021-07-10T12:03:19.854Z</time>
      </trkpt>
      <trkpt lat="53.774357" lon="10.661815">
        <ele>52.884417</ele>
        <time>2021-07-10T12:03:22.835Z</time>
      </trkpt>
      <trkpt lat="53.774396" lon="10.661953">
        <ele>52.600162</ele>
        <time>2021-07-10T12:03:23.834Z</time>
      </trkpt>
      <trkpt lat="53.774439" lon="10.662126">
        <ele>52.251404</ele>
        <time>2021-07-10T12:03:27.840Z</time>
      </trkpt>
      <trkpt lat="53.774475" lon="10.662289">
        <ele>51.928045</ele>
        <time>2021-07-10T12:03:31.814Z</time>
      </trkpt>
      <trkpt lat="53.774508" lon="10.662596">
        <ele>51.775957</ele>
        <time>2021-07-10T12:03:51.821Z</time>
      </trkpt>
      <trkpt lat="53.774640" lon="10.663053">
        <ele>51.737360</ele>
        <time>2021-07-10T12:04:35.841Z</time>
      </trkpt>
      <trkpt lat="53.774712" lon="10.663188">
        <ele>51.723561</ele>
        <time>2021-07-10T12:04:39.814Z</time>
      </trkpt>
      <trkpt lat="53.774779" lon="10.663302">
        <ele>51.711362</ele>
        <time>2021-07-10T12:04:42.821Z</time>
      </trkpt>
      <trkpt lat="53.774846" lon="10.663406">
        <ele>51.699688</ele>
        <time>2021-07-10T12:04:45.785Z</time>
      </trkpt>
      <trkpt lat="53.774918" lon="10.663513">
        <ele>51.687384</ele>
        <time>2021-07-10T12:04:48.812Z</time>
      </trkpt>
      <trkpt lat="53.774981" lon="10.663635">
        <ele>51.675090</ele>
        <time>2021-07-10T12:04:52.835Z</time>
      </trkpt>
      <trkpt lat="53.775093" lon="10.663784">
        <ele>51.656797</ele>
        <time>2021-07-10T12:04:58.834Z</time>
      </trkpt>
      <trkpt lat="53.775398" lon="10.664007">
        <ele>51.614136</ele>
        <time>2021-07-10T12:05:32.822Z</time>
      </trkpt>
      <trkpt lat="53.775507" lon="10.664058">
        <ele>51.599615</ele>
        <time>2021-07-10T12:05:35.826Z</time>
      </trkpt>
      <trkpt lat="53.775608" lon="10.664130">
        <ele>51.585543</ele>
        <time>2021-07-10T12:05:38.829Z</time>
      </trkpt>
      <trkpt lat="53.775695" lon="10.664186">
        <ele>51.573592</ele>
        <time>2021-07-10T12:05:42.790Z</time>
      </trkpt>
      <trkpt lat="53.775792" lon="10.664237">
        <ele>51.572597</ele>
        <time>2021-07-10T12:05:47.804Z</time>
      </trkpt>
      <trkpt lat="53.775889" lon="10.664291">
        <ele>51.618582</ele>
        <time>2021-07-10T12:05:50.783Z</time>
      </trkpt>
      <trkpt lat="53.776005" lon="10.664362">
        <ele>51.674132</ele>
        <time>2021-07-10T12:05:52.818Z</time>
      </trkpt>
      <trkpt lat="53.776093" lon="10.664461">
        <ele>51.721719</ele>
        <time>2021-07-10T12:05:54.824Z</time>
      </trkpt>
      <trkpt lat="53.776208" lon="10.664544">
        <ele>51.778020</ele>
        <time>2021-07-10T12:05:57.822Z</time>
      </trkpt>
      <trkpt lat="53.776305" lon="10.664674">
        <ele>51.833742</ele>
        <time>2021-07-10T12:06:00.824Z</time>
      </trkpt>
      <trkpt lat="53.776452" lon="10.664815">
        <ele>51.909835</ele>
        <time>2021-07-10T12:06:02.821Z</time>
      </trkpt>
      <trkpt lat="53.776534" lon="10.664944">
        <ele>51.960253</ele>
        <time>2021-07-10T12:06:05.823Z</time>
      </trkpt>
      <trkpt lat="53.776611" lon="10.665032">
        <ele>52.002096</ele>
        <time>2021-07-10T12:06:07.811Z</time>
      </trkpt>
      <trkpt lat="53.776712" lon="10.665129">
        <ele>52.054393</ele>
        <time>2021-07-10T12:06:09.820Z</time>
      </trkpt>
      <trkpt lat="53.776836" lon="10.665273">
        <ele>52.122117</ele>
        <time>2021-07-10T12:06:11.830Z</time>
      </trkpt>
      <trkpt lat="53.776933" lon="10.665381">
        <ele>52.174406</ele>
        <time>2021-07-10T12:06:13.842Z</time>
      </trkpt>
      <trkpt lat="53.777038" lon="10.665509">
        <ele>52.232681</ele>
        <time>2021-07-10T12:06:16.818Z</time>
      </trkpt>
      <trkpt lat="53.777159" lon="10.665636">
        <ele>52.296801</ele>
        <time>2021-07-10T12:06:19.822Z</time>
      </trkpt>
      <trkpt lat="53.777266" lon="10.665730">
        <ele>52.351092</ele>
        <time>2021-07-10T12:06:22.833Z</time>
      </trkpt>
      <trkpt lat="53.777355" lon="10.665831">
        <ele>52.403840</ele>
        <time>2021-07-10T12:06:25.813Z</time>
      </trkpt>
      <trkpt lat="53.777435" lon="10.665945">
        <ele>52.459027</ele>
        <time>2021-07-10T12:06:28.810Z</time>
      </trkpt>
      <trkpt lat="53.777531" lon="10.666083">
        <ele>52.525494</ele>
        <time>2021-07-10T12:06:31.818Z</time>
      </trkpt>
      <trkpt lat="53.777655" lon="10.666222">
        <ele>52.603980</ele>
        <time>2021-07-10T12:06:34.820Z</time>
      </trkpt>
      <trkpt lat="53.777759" lon="10.666332">
        <ele>52.668696</ele>
        <time>2021-07-10T12:06:36.822Z</time>
      </trkpt>
      <trkpt lat="53.777876" lon="10.666448">
        <ele>52.740250</ele>
        <time>2021-07-10T12:06:39.907Z</time>
      </trkpt>
      <trkpt lat="53.777987" lon="10.666533">
        <ele>52.804540</ele>
        <time>2021-07-10T12:06:42.837Z</time>
      </trkpt>
      <trkpt lat="53.778095" lon="10.666599">
        <ele>52.865131</ele>
        <time>2021-07-10T12:06:45.818Z</time>
      </trkpt>
      <trkpt lat="53.778206" lon="10.666681">
        <ele>52.929041</ele>
        <time>2021-07-10T12:06:48.819Z</time>
      </trkpt>
      <trkpt lat="53.778316" lon="10.666721">
        <ele>52.988411</ele>
        <time>2021-07-10T12:06:52.825Z</time>
      </trkpt>
      <trkpt lat="53.778417" lon="10.666771">
        <ele>53.043940</ele>
        <time>2021-07-10T12:06:55.831Z</time>
      </trkpt>
      <trkpt lat="53.778539" lon="10.666865">
        <ele>53.114675</ele>
        <time>2021-07-10T12:06:59.819Z</time>
      </trkpt>
      <trkpt lat="53.778633" lon="10.666961">
        <ele>53.172610</ele>
        <time>2021-07-10T12:07:01.837Z</time>
      </trkpt>
      <trkpt lat="53.778730" lon="10.667043">
        <ele>53.229825</ele>
        <time>2021-07-10T12:07:04.838Z</time>
      </trkpt>
      <trkpt lat="53.778836" lon="10.667136">
        <ele>53.292830</ele>
        <time>2021-07-10T12:07:07.830Z</time>
      </trkpt>
      <trkpt lat="53.778935" lon="10.667225">
        <ele>53.375755</ele>
        <time>2021-07-10T12:07:10.829Z</time>
      </trkpt>
      <trkpt lat="53.779014" lon="10.667297">
        <ele>53.461031</ele>
        <time>2021-07-10T12:07:12.841Z</time>
      </trkpt>
      <trkpt lat="53.779104" lon="10.667380">
        <ele>53.558442</ele>
        <time>2021-07-10T12:07:14.804Z</time>
      </trkpt>
      <trkpt lat="53.779203" lon="10.667473">
        <ele>53.666054</ele>
        <time>2021-07-10T12:07:17.818Z</time>
      </trkpt>
      <trkpt lat="53.779295" lon="10.667547">
        <ele>53.762862</ele>
        <time>2021-07-10T12:07:20.837Z</time>
      </trkpt>
      <trkpt lat="53.779373" lon="10.667629">
        <ele>53.850131</ele>
        <time>2021-07-10T12:07:23.833Z</time>
      </trkpt>
      <trkpt lat="53.779472" lon="10.667772">
        <ele>53.973831</ele>
        <time>2021-07-10T12:07:27.834Z</time>
      </trkpt>
      <trkpt lat="53.779554" lon="10.667906">
        <ele>54.082164</ele>
        <time>2021-07-10T12:07:30.837Z</time>
      </trkpt>
      <trkpt lat="53.779622" lon="10.668029">
        <ele>54.176757</ele>
        <time>2021-07-10T12:07:32.835Z</time>
      </trkpt>
      <trkpt lat="53.779705" lon="10.668189">
        <ele>54.296322</ele>
        <time>2021-07-10T12:07:35.848Z</time>
      </trkpt>
      <trkpt lat="53.779792" lon="10.668311">
        <ele>54.403702</ele>
        <time>2021-07-10T12:07:38.831Z</time>
      </trkpt>
      <trkpt lat="53.779864" lon="10.668446">
        <ele>54.505828</ele>
        <time>2021-07-10T12:07:41.836Z</time>
      </trkpt>
      <trkpt lat="53.779927" lon="10.668592">
        <ele>54.607353</ele>
        <time>2021-07-10T12:07:44.838Z</time>
      </trkpt>
      <trkpt lat="53.779998" lon="10.668707">
        <ele>54.700755</ele>
        <time>2021-07-10T12:07:48.832Z</time>
      </trkpt>
      <trkpt lat="53.780101" lon="10.668787">
        <ele>54.808461</ele>
        <time>2021-07-10T12:07:54.838Z</time>
      </trkpt>
      <trkpt lat="53.780187" lon="10.668925">
        <ele>54.921093</ele>
        <time>2021-07-10T12:07:58.840Z</time>
      </trkpt>
      <trkpt lat="53.780250" lon="10.669035">
        <ele>55.007121</ele>
        <time>2021-07-10T12:08:02.829Z</time>
      </trkpt>
      <trkpt lat="53.780348" lon="10.669187">
        <ele>54.971004</ele>
        <time>2021-07-10T12:08:06.848Z</time>
      </trkpt>
      <trkpt lat="53.780425" lon="10.669304">
        <ele>54.912321</ele>
        <time>2021-07-10T12:08:09.839Z</time>
      </trkpt>
      <trkpt lat="53.780487" lon="10.669417">
        <ele>54.860651</ele>
        <time>2021-07-10T12:08:12.842Z</time>
      </trkpt>
      <trkpt lat="53.780576" lon="10.669548">
        <ele>54.793763</ele>
        <time>2021-07-10T12:08:16.810Z</time>
      </trkpt>
      <trkpt lat="53.780671" lon="10.669667">
        <ele>54.726739</ele>
        <time>2021-07-10T12:08:20.837Z</time>
      </trkpt>
      <trkpt lat="53.780741" lon="10.669777">
        <ele>54.672570</ele>
        <time>2021-07-10T12:08:22.840Z</time>
      </trkpt>
      <trkpt lat="53.780864" lon="10.669900">
        <ele>54.591553</ele>
        <time>2021-07-10T12:08:25.835Z</time>
      </trkpt>
      <trkpt lat="53.780958" lon="10.670030">
        <ele>54.522713</ele>
        <time>2021-07-10T12:08:29.823Z</time>
      </trkpt>
      <trkpt lat="53.781200" lon="10.670381">
        <ele>54.341978</ele>
        <time>2021-07-10T12:09:02.836Z</time>
      </trkpt>
      <trkpt lat="53.781288" lon="10.670476">
        <ele>54.282787</ele>
        <time>2021-07-10T12:09:06.837Z</time>
      </trkpt>
      <trkpt lat="53.781375" lon="10.670601">
        <ele>54.218070</ele>
        <time>2021-07-10T12:09:10.825Z</time>
      </trkpt>
      <trkpt lat="53.781471" lon="10.670705">
        <ele>54.153432</ele>
        <time>2021-07-10T12:09:14.840Z</time>
      </trkpt>
      <trkpt lat="53.781545" lon="10.670810">
        <ele>54.098671</ele>
        <time>2021-07-10T12:09:17.833Z</time>
      </trkpt>
      <trkpt lat="53.781633" lon="10.670934">
        <ele>54.033736</ele>
        <time>2021-07-10T12:09:19.835Z</time>
      </trkpt>
      <trkpt lat="53.781720" lon="10.671084">
        <ele>53.895851</ele>
        <time>2021-07-10T12:09:22.828Z</time>
      </trkpt>
      <trkpt lat="53.781802" lon="10.671221">
        <ele>53.739494</ele>
        <time>2021-07-10T12:09:25.828Z</time>
      </trkpt>
      <trkpt lat="53.781890" lon="10.671351">
        <ele>53.580989</ele>
        <time>2021-07-10T12:09:28.844Z</time>
      </trkpt>
      <trkpt lat="53.781972" lon="10.671509">
        <ele>53.412378</ele>
        <time>2021-07-10T12:09:32.832Z</time>
      </trkpt>
      <trkpt lat="53.782050" lon="10.671625">
        <ele>53.271477</ele>
        <time>2021-07-10T12:09:34.833Z</time>
      </trkpt>
      <trkpt lat="53.782133" lon="10.671756">
        <ele>53.117473</ele>
        <time>2021-07-10T12:09:37.831Z</time>
      </trkpt>
      <trkpt lat="53.782223" lon="10.671854">
        <ele>52.972252</ele>
        <time>2021-07-10T12:09:39.848Z</time>
      </trkpt>
      <trkpt lat="53.782311" lon="10.671964">
        <ele>52.823800</ele>
        <time>2021-07-10T12:09:41.837Z</time>
      </trkpt>
      <trkpt lat="53.782387" lon="10.672098">
        <ele>52.674875</ele>
        <time>2021-07-10T12:09:44.832Z</time>
      </trkpt>
      <trkpt lat="53.782473" lon="10.672206">
        <ele>52.529558</ele>
        <time>2021-07-10T12:09:48.840Z</time>
      </trkpt>
      <trkpt lat="53.782549" lon="10.672336">
        <ele>52.382931</ele>
        <time>2021-07-10T12:09:52.840Z</time>
      </trkpt>
      <trkpt lat="53.782654" lon="10.672479">
        <ele>52.200047</ele>
        <time>2021-07-10T12:09:55.840Z</time>
      </trkpt>
      <trkpt lat="53.782729" lon="10.672621">
        <ele>52.047338</ele>
        <time>2021-07-10T12:09:57.825Z</time>
      </trkpt>
      <trkpt lat="53.782792" lon="10.672734">
        <ele>51.922772</ele>
        <time>2021-07-10T12:09:59.837Z</time>
      </trkpt>
      <trkpt lat="53.782897" lon="10.672882">
        <ele>51.737349</ele>
        <time>2021-07-10T12:10:02.830Z</time>
      </trkpt>
      <trkpt lat="53.782984" lon="10.673018">
        <ele>51.576641</ele>
        <time>2021-07-10T12:10:05.849Z</time>
      </trkpt>
      <trkpt lat="53.783052" lon="10.673150">
        <ele>51.639709</ele>
        <time>2021-07-10T12:10:08.830Z</time>
      </trkpt>
      <trkpt lat="53.783126" lon="10.673274">
        <ele>51.711712</ele>
        <time>2021-07-10T12:10:11.853Z</time>
      </trkpt>
      <trkpt lat="53.783214" lon="10.673417">
        <ele>51.796065</ele>
        <time>2021-07-10T12:10:14.838Z</time>
      </trkpt>
      <trkpt lat="53.783284" lon="10.673528">
        <ele>51.862391</ele>
        <time>2021-07-10T12:10:21.839Z</time>
      </trkpt>
      <trkpt lat="53.783406" lon="10.673691">
        <ele>51.969865</ele>
        <time>2021-07-10T12:11:10.827Z</time>
      </trkpt>
      <trkpt lat="53.783485" lon="10.673834">
        <ele>52.049845</ele>
        <time>2021-07-10T12:11:13.782Z</time>
      </trkpt>
      <trkpt lat="53.783554" lon="10.673936">
        <ele>52.113191</ele>
        <time>2021-07-10T12:11:16.792Z</time>
      </trkpt>
      <trkpt lat="53.783640" lon="10.674028">
        <ele>52.183538</ele>
        <time>2021-07-10T12:11:19.838Z</time>
      </trkpt>
      <trkpt lat="53.783733" lon="10.674065">
        <ele>52.249596</ele>
        <time>2021-07-10T12:11:23.817Z</time>
      </trkpt>
      <trkpt lat="53.783840" lon="10.674076">
        <ele>52.323717</ele>
        <time>2021-07-10T12:11:27.832Z</time>
      </trkpt>
      <trkpt lat="53.783931" lon="10.674112">
        <ele>52.388335</ele>
        <time>2021-07-10T12:11:31.830Z</time>
      </trkpt>
      <trkpt lat="53.784032" lon="10.674132">
        <ele>52.458648</ele>
        <time>2021-07-10T12:11:35.832Z</time>
      </trkpt>
      <trkpt lat="53.784308" lon="10.674178">
        <ele>52.650412</ele>
        <time>2021-07-10T12:15:44.834Z</time>
      </trkpt>
      <trkpt lat="53.784440" lon="10.674204">
        <ele>52.742300</ele>
        <time>2021-07-10T12:15:47.845Z</time>
      </trkpt>
      <trkpt lat="53.784563" lon="10.674227">
        <ele>52.803072</ele>
        <time>2021-07-10T12:15:50.829Z</time>
      </trkpt>
      <trkpt lat="53.784675" lon="10.674235">
        <ele>52.734619</ele>
        <time>2021-07-10T12:15:53.841Z</time>
      </trkpt>
      <trkpt lat="53.784795" lon="10.674262">
        <ele>52.660698</ele>
        <time>2021-07-10T12:15:56.829Z</time>
      </trkpt>
      <trkpt lat="53.784905" lon="10.674284">
        <ele>52.593060</ele>
        <time>2021-07-10T12:15:59.843Z</time>
      </trkpt>
      <trkpt lat="53.785009" lon="10.674312">
        <ele>52.528755</ele>
        <time>2021-07-10T12:16:02.846Z</time>
      </trkpt>
      <trkpt lat="53.785119" lon="10.674335">
        <ele>52.461074</ele>
        <time>2021-07-10T12:16:06.831Z</time>
      </trkpt>
      <trkpt lat="53.785211" lon="10.674345">
        <ele>52.404780</ele>
        <time>2021-07-10T12:16:10.834Z</time>
      </trkpt>
      <trkpt lat="53.785298" lon="10.674404">
        <ele>52.347549</ele>
        <time>2021-07-10T12:16:21.843Z</time>
      </trkpt>
      <trkpt lat="53.785386" lon="10.674454">
        <ele>52.290866</ele>
        <time>2021-07-10T12:16:37.830Z</time>
      </trkpt>
      <trkpt lat="53.785497" lon="10.674474">
        <ele>52.222702</ele>
        <time>2021-07-10T12:16:41.837Z</time>
      </trkpt>
      <trkpt lat="53.785595" lon="10.674495">
        <ele>52.162381</ele>
        <time>2021-07-10T12:16:43.837Z</time>
      </trkpt>
      <trkpt lat="53.785684" lon="10.674518">
        <ele>52.107405</ele>
        <time>2021-07-10T12:16:45.826Z</time>
      </trkpt>
      <trkpt lat="53.785801" lon="10.674549">
        <ele>52.035090</ele>
        <time>2021-07-10T12:16:48.856Z</time>
      </trkpt>
      <trkpt lat="53.785924" lon="10.674587">
        <ele>51.958740</ele>
        <time>2021-07-10T12:16:51.834Z</time>
      </trkpt>
      <trkpt lat="53.786046" lon="10.674622">
        <ele>51.883180</ele>
        <time>2021-07-10T12:16:54.820Z</time>
      </trkpt>
      <trkpt lat="53.786161" lon="10.674633">
        <ele>51.812844</ele>
        <time>2021-07-10T12:16:57.858Z</time>
      </trkpt>
      <trkpt lat="53.786258" lon="10.674628">
        <ele>51.753585</ele>
        <time>2021-07-10T12:17:02.839Z</time>
      </trkpt>
      <trkpt lat="53.786348" lon="10.674579">
        <ele>51.769405</ele>
        <time>2021-07-10T12:17:07.835Z</time>
      </trkpt>
      <trkpt lat="53.786344" lon="10.674424">
        <ele>51.914025</ele>
        <time>2021-07-10T12:17:10.833Z</time>
      </trkpt>
      <trkpt lat="53.786347" lon="10.674229">
        <ele>52.095855</ele>
        <time>2021-07-10T12:17:13.840Z</time>
      </trkpt>
      <trkpt lat="53.786353" lon="10.674034">
        <ele>52.277870</ele>
        <time>2021-07-10T12:17:16.809Z</time>
      </trkpt>
      <trkpt lat="53.786358" lon="10.673818">
        <ele>52.479368</ele>
        <time>2021-07-10T12:17:19.818Z</time>
      </trkpt>
      <trkpt lat="53.786364" lon="10.673658">
        <ele>52.628812</ele>
        <time>2021-07-10T12:17:21.838Z</time>
      </trkpt>
      <trkpt lat="53.786364" lon="10.673463">
        <ele>52.810580</ele>
        <time>2021-07-10T12:17:24.832Z</time>
      </trkpt>
      <trkpt lat="53.786358" lon="10.673262">
        <ele>52.998181</ele>
        <time>2021-07-10T12:17:27.810Z</time>
      </trkpt>
      <trkpt lat="53.786346" lon="10.673065">
        <ele>53.182787</ele>
        <time>2021-07-10T12:17:30.844Z</time>
      </trkpt>
      <trkpt lat="53.786324" lon="10.672858">
        <ele>53.378839</ele>
        <time>2021-07-10T12:17:33.848Z</time>
      </trkpt>
      <trkpt lat="53.786304" lon="10.672673">
        <ele>53.554150</ele>
        <time>2021-07-10T12:17:37.843Z</time>
      </trkpt>
      <trkpt lat="53.786243" lon="10.672225">
        <ele>53.982699</ele>
        <time>2021-07-10T12:18:40.833Z</time>
      </trkpt>
      <trkpt lat="53.786207" lon="10.672073">
        <ele>54.135347</ele>
        <time>2021-07-10T12:18:42.822Z</time>
      </trkpt>
      <trkpt lat="53.786153" lon="10.671871">
        <ele>54.342020</ele>
        <time>2021-07-10T12:18:45.826Z</time>
      </trkpt>
      <trkpt lat="53.786117" lon="10.671728">
        <ele>54.486915</ele>
        <time>2021-07-10T12:18:47.842Z</time>
      </trkpt>
      <trkpt lat="53.786078" lon="10.671585">
        <ele>54.579783</ele>
        <time>2021-07-10T12:18:49.833Z</time>
      </trkpt>
      <trkpt lat="53.786019" lon="10.671388">
        <ele>54.645954</ele>
        <time>2021-07-10T12:18:52.824Z</time>
      </trkpt>
      <trkpt lat="53.785979" lon="10.671252">
        <ele>54.691469</ele>
        <time>2021-07-10T12:18:54.859Z</time>
      </trkpt>
      <trkpt lat="53.785914" lon="10.671053">
        <ele>54.759593</ele>
        <time>2021-07-10T12:18:57.864Z</time>
      </trkpt>
      <trkpt lat="53.785859" lon="10.670905">
        <ele>54.811976</ele>
        <time>2021-07-10T12:18:59.821Z</time>
      </trkpt>
      <trkpt lat="53.785817" lon="10.670760">
        <ele>54.860357</ele>
        <time>2021-07-10T12:19:01.838Z</time>
      </trkpt>
      <trkpt lat="53.785777" lon="10.670614">
        <ele>54.908573</ele>
        <time>2021-07-10T12:19:03.815Z</time>
      </trkpt>
      <trkpt lat="53.785735" lon="10.670462">
        <ele>54.958846</ele>
        <time>2021-07-10T12:19:05.814Z</time>
      </trkpt>
      <trkpt lat="53.785690" lon="10.670304">
        <ele>55.011396</ele>
        <time>2021-07-10T12:19:07.837Z</time>
      </trkpt>
      <trkpt lat="53.785643" lon="10.670150">
        <ele>55.063326</ele>
        <time>2021-07-10T12:19:09.826Z</time>
      </trkpt>
      <trkpt lat="53.785600" lon="10.669991">
        <ele>55.115716</ele>
        <time>2021-07-10T12:19:11.824Z</time>
      </trkpt>
      <trkpt lat="53.785555" lon="10.669837">
        <ele>55.167189</ele>
        <time>2021-07-10T12:19:13.843Z</time>
      </trkpt>
      <trkpt lat="53.785507" lon="10.669678">
        <ele>55.220683</ele>
        <time>2021-07-10T12:19:15.857Z</time>
      </trkpt>
      <trkpt lat="53.785460" lon="10.669513">
        <ele>55.275563</ele>
        <time>2021-07-10T12:19:17.821Z</time>
      </trkpt>
      <trkpt lat="53.785415" lon="10.669349">
        <ele>55.329738</ele>
        <time>2021-07-10T12:19:19.845Z</time>
      </trkpt>
      <trkpt lat="53.785368" lon="10.669195">
        <ele>55.381668</ele>
        <time>2021-07-10T12:19:21.819Z</time>
      </trkpt>
      <trkpt lat="53.785322" lon="10.669044">
        <ele>55.432568</ele>
        <time>2021-07-10T12:19:23.829Z</time>
      </trkpt>
      <trkpt lat="53.785271" lon="10.668909">
        <ele>55.488659</ele>
        <time>2021-07-10T12:19:25.842Z</time>
      </trkpt>
      <trkpt lat="53.785214" lon="10.668772">
        <ele>55.567335</ele>
        <time>2021-07-10T12:19:27.846Z</time>
      </trkpt>
      <trkpt lat="53.785164" lon="10.668638">
        <ele>55.641751</ele>
        <time>2021-07-10T12:19:29.835Z</time>
      </trkpt>
      <trkpt lat="53.785116" lon="10.668498">
        <ele>55.717753</ele>
        <time>2021-07-10T12:19:31.834Z</time>
      </trkpt>
      <trkpt lat="53.785066" lon="10.668357">
        <ele>55.794968</ele>
        <time>2021-07-10T12:19:33.833Z</time>
      </trkpt>
      <trkpt lat="53.785016" lon="10.668215">
        <ele>55.872585</ele>
        <time>2021-07-10T12:19:35.843Z</time>
      </trkpt>
      <trkpt lat="53.784966" lon="10.668080">
        <ele>55.947398</ele>
        <time>2021-07-10T12:19:37.843Z</time>
      </trkpt>
      <trkpt lat="53.784893" lon="10.667881">
        <ele>56.057382</ele>
        <time>2021-07-10T12:19:40.837Z</time>
      </trkpt>
      <trkpt lat="53.784843" lon="10.667721">
        <ele>56.142370</ele>
        <time>2021-07-10T12:19:42.839Z</time>
      </trkpt>
      <trkpt lat="53.784799" lon="10.667580">
        <ele>56.217243</ele>
        <time>2021-07-10T12:19:44.842Z</time>
      </trkpt>
      <trkpt lat="53.784750" lon="10.667445">
        <ele>56.291637</ele>
        <time>2021-07-10T12:19:46.840Z</time>
      </trkpt>
      <trkpt lat="53.784675" lon="10.667230">
        <ele>56.408872</ele>
        <time>2021-07-10T12:19:49.837Z</time>
      </trkpt>
      <trkpt lat="53.784628" lon="10.667064">
        <ele>56.495304</ele>
        <time>2021-07-10T12:19:51.832Z</time>
      </trkpt>
      <trkpt lat="53.784587" lon="10.666906">
        <ele>56.576332</ele>
        <time>2021-07-10T12:19:53.814Z</time>
      </trkpt>
      <trkpt lat="53.784546" lon="10.666748">
        <ele>56.657360</ele>
        <time>2021-07-10T12:19:55.829Z</time>
      </trkpt>
      <trkpt lat="53.784507" lon="10.666581">
        <ele>56.741678</ele>
        <time>2021-07-10T12:19:57.825Z</time>
      </trkpt>
      <trkpt lat="53.784468" lon="10.666401">
        <ele>56.831700</ele>
        <time>2021-07-10T12:19:59.829Z</time>
      </trkpt>
      <trkpt lat="53.784429" lon="10.666227">
        <ele>56.877039</ele>
        <time>2021-07-10T12:20:01.838Z</time>
      </trkpt>
      <trkpt lat="53.784391" lon="10.666064">
        <ele>56.811009</ele>
        <time>2021-07-10T12:20:03.834Z</time>
      </trkpt>
      <trkpt lat="53.784350" lon="10.665873">
        <ele>56.734434</ele>
        <time>2021-07-10T12:20:05.845Z</time>
      </trkpt>
      <trkpt lat="53.784314" lon="10.665716">
        <ele>56.670974</ele>
        <time>2021-07-10T12:20:07.820Z</time>
      </trkpt>
      <trkpt lat="53.784271" lon="10.665550">
        <ele>56.602674</ele>
        <time>2021-07-10T12:20:09.834Z</time>
      </trkpt>
      <trkpt lat="53.784230" lon="10.665375">
        <ele>56.531735</ele>
        <time>2021-07-10T12:20:11.842Z</time>
      </trkpt>
      <trkpt lat="53.784191" lon="10.665197">
        <ele>56.460198</ele>
        <time>2021-07-10T12:20:13.823Z</time>
      </trkpt>
      <trkpt lat="53.784151" lon="10.665033">
        <ele>56.393341</ele>
        <time>2021-07-10T12:20:15.837Z</time>
      </trkpt>
      <trkpt lat="53.784114" lon="10.664856">
        <ele>56.322592</ele>
        <time>2021-07-10T12:20:17.840Z</time>
      </trkpt>
      <trkpt lat="53.784072" lon="10.664685">
        <ele>56.252809</ele>
        <time>2021-07-10T12:20:19.820Z</time>
      </trkpt>
      <trkpt lat="53.784029" lon="10.664514">
        <ele>56.182779</ele>
        <time>2021-07-10T12:20:21.846Z</time>
      </trkpt>
      <trkpt lat="53.783990" lon="10.664342">
        <ele>56.113357</ele>
        <time>2021-07-10T12:20:23.848Z</time>
      </trkpt>
      <trkpt lat="53.783952" lon="10.664170">
        <ele>56.044160</ele>
        <time>2021-07-10T12:20:25.836Z</time>
      </trkpt>
      <trkpt lat="53.783916" lon="10.664003">
        <ele>55.977173</ele>
        <time>2021-07-10T12:20:27.839Z</time>
      </trkpt>
      <trkpt lat="53.783879" lon="10.663835">
        <ele>55.909612</ele>
        <time>2021-07-10T12:20:29.838Z</time>
      </trkpt>
      <trkpt lat="53.783839" lon="10.663671">
        <ele>55.842754</ele>
        <time>2021-07-10T12:20:31.825Z</time>
      </trkpt>
      <trkpt lat="53.783801" lon="10.663502">
        <ele>55.774615</ele>
        <time>2021-07-10T12:20:33.839Z</time>
      </trkpt>
      <trkpt lat="53.783766" lon="10.663335">
        <ele>55.713504</ele>
        <time>2021-07-10T12:20:35.844Z</time>
      </trkpt>
      <trkpt lat="53.783729" lon="10.663178">
        <ele>55.658653</ele>
        <time>2021-07-10T12:20:37.840Z</time>
      </trkpt>
      <trkpt lat="53.783682" lon="10.662975">
        <ele>55.587900</ele>
        <time>2021-07-10T12:20:40.847Z</time>
      </trkpt>
      <trkpt lat="53.783661" lon="10.662827">
        <ele>55.538508</ele>
        <time>2021-07-10T12:20:42.829Z</time>
      </trkpt>
      <trkpt lat="53.783634" lon="10.662675">
        <ele>55.487001</ele>
        <time>2021-07-10T12:20:44.832Z</time>
      </trkpt>
      <trkpt lat="53.783610" lon="10.662510">
        <ele>55.431859</ele>
        <time>2021-07-10T12:20:47.808Z</time>
      </trkpt>
      <trkpt lat="53.783572" lon="10.662290">
        <ele>55.357478</ele>
        <time>2021-07-10T12:20:50.821Z</time>
      </trkpt>
      <trkpt lat="53.783522" lon="10.662088">
        <ele>55.286408</ele>
        <time>2021-07-10T12:20:53.830Z</time>
      </trkpt>
      <trkpt lat="53.783501" lon="10.661925">
        <ele>55.232270</ele>
        <time>2021-07-10T12:20:55.826Z</time>
      </trkpt>
      <trkpt lat="53.783447" lon="10.661677">
        <ele>55.146500</ele>
        <time>2021-07-10T12:20:57.840Z</time>
      </trkpt>
      <trkpt lat="53.783392" lon="10.661475">
        <ele>55.074323</ele>
        <time>2021-07-10T12:20:59.843Z</time>
      </trkpt>
      <trkpt lat="53.783349" lon="10.661332">
        <ele>55.022254</ele>
        <time>2021-07-10T12:21:01.828Z</time>
      </trkpt>
      <trkpt lat="53.783293" lon="10.661139">
        <ele>54.952479</ele>
        <time>2021-07-10T12:21:03.832Z</time>
      </trkpt>
      <trkpt lat="53.783253" lon="10.660944">
        <ele>54.885494</ele>
        <time>2021-07-10T12:21:05.841Z</time>
      </trkpt>
      <trkpt lat="53.783202" lon="10.660773">
        <ele>54.823333</ele>
        <time>2021-07-10T12:21:07.837Z</time>
      </trkpt>
      <trkpt lat="53.783154" lon="10.660567">
        <ele>54.769457</ele>
        <time>2021-07-10T12:21:09.839Z</time>
      </trkpt>
      <trkpt lat="53.783111" lon="10.660375">
        <ele>54.832235</ele>
        <time>2021-07-10T12:21:11.830Z</time>
      </trkpt>
      <trkpt lat="53.783071" lon="10.660218">
        <ele>54.884510</ele>
        <time>2021-07-10T12:21:13.833Z</time>
      </trkpt>
      <trkpt lat="53.783034" lon="10.660050">
        <ele>54.939327</ele>
        <time>2021-07-10T12:21:15.835Z</time>
      </trkpt>
      <trkpt lat="53.782996" lon="10.659880">
        <ele>54.994899</ele>
        <time>2021-07-10T12:21:17.831Z</time>
      </trkpt>
      <trkpt lat="53.782966" lon="10.659728">
        <ele>55.043897</ele>
        <time>2021-07-10T12:21:19.844Z</time>
      </trkpt>
      <trkpt lat="53.782925" lon="10.659575">
        <ele>55.095262</ele>
        <time>2021-07-10T12:21:21.850Z</time>
      </trkpt>
      <trkpt lat="53.782891" lon="10.659404">
        <ele>55.150426</ele>
        <time>2021-07-10T12:21:23.822Z</time>
      </trkpt>
      <trkpt lat="53.782849" lon="10.659262">
        <ele>55.198978</ele>
        <time>2021-07-10T12:21:25.841Z</time>
      </trkpt>
      <trkpt lat="53.782792" lon="10.659086">
        <ele>55.260343</ele>
        <time>2021-07-10T12:21:27.849Z</time>
      </trkpt>
      <trkpt lat="53.782750" lon="10.658933">
        <ele>55.311925</ele>
        <time>2021-07-10T12:21:29.837Z</time>
      </trkpt>
      <trkpt lat="53.782718" lon="10.658751">
        <ele>55.369982</ele>
        <time>2021-07-10T12:21:31.845Z</time>
      </trkpt>
      <trkpt lat="53.782672" lon="10.658582">
        <ele>55.426873</ele>
        <time>2021-07-10T12:21:33.843Z</time>
      </trkpt>
      <trkpt lat="53.782637" lon="10.658419">
        <ele>55.479898</ele>
        <time>2021-07-10T12:21:35.832Z</time>
      </trkpt>
      <trkpt lat="53.782603" lon="10.658255">
        <ele>55.533038</ele>
        <time>2021-07-10T12:21:37.842Z</time>
      </trkpt>
      <trkpt lat="53.782569" lon="10.658090">
        <ele>55.586467</ele>
        <time>2021-07-10T12:21:39.837Z</time>
      </trkpt>
      <trkpt lat="53.782525" lon="10.657916">
        <ele>55.644334</ele>
        <time>2021-07-10T12:21:42.849Z</time>
      </trkpt>
      <trkpt lat="53.782490" lon="10.657743">
        <ele>55.696926</ele>
        <time>2021-07-10T12:21:45.840Z</time>
      </trkpt>
      <trkpt lat="53.782459" lon="10.657578">
        <ele>55.729829</ele>
        <time>2021-07-10T12:21:48.834Z</time>
      </trkpt>
      <trkpt lat="53.782419" lon="10.657426">
        <ele>55.761449</ele>
        <time>2021-07-10T12:21:51.824Z</time>
      </trkpt>
      <trkpt lat="53.782376" lon="10.657230">
        <ele>55.801180</ele>
        <time>2021-07-10T12:21:54.844Z</time>
      </trkpt>
      <trkpt lat="53.782332" lon="10.657025">
        <ele>55.842628</ele>
        <time>2021-07-10T12:21:57.818Z</time>
      </trkpt>
      <trkpt lat="53.782284" lon="10.656823">
        <ele>55.884003</ele>
        <time>2021-07-10T12:22:00.820Z</time>
      </trkpt>
      <trkpt lat="53.782253" lon="10.656676">
        <ele>55.913663</ele>
        <time>2021-07-10T12:22:02.827Z</time>
      </trkpt>
      <trkpt lat="53.782221" lon="10.656533">
        <ele>55.942722</ele>
        <time>2021-07-10T12:22:04.841Z</time>
      </trkpt>
      <trkpt lat="53.782186" lon="10.656392">
        <ele>55.971785</ele>
        <time>2021-07-10T12:22:06.844Z</time>
      </trkpt>
      <trkpt lat="53.782135" lon="10.656181">
        <ele>56.015108</ele>
        <time>2021-07-10T12:22:09.846Z</time>
      </trkpt>
      <trkpt lat="53.782101" lon="10.656040">
        <ele>56.044048</ele>
        <time>2021-07-10T12:22:11.829Z</time>
      </trkpt>
      <trkpt lat="53.782067" lon="10.655900">
        <ele>56.072812</ele>
        <time>2021-07-10T12:22:13.847Z</time>
      </trkpt>
      <trkpt lat="53.782033" lon="10.655753">
        <ele>56.102812</ele>
        <time>2021-07-10T12:22:15.837Z</time>
      </trkpt>
      <trkpt lat="53.781997" lon="10.655604">
        <ele>56.133403</ele>
        <time>2021-07-10T12:22:17.828Z</time>
      </trkpt>
      <trkpt lat="53.781960" lon="10.655456">
        <ele>56.163942</ele>
        <time>2021-07-10T12:22:19.824Z</time>
      </trkpt>
      <trkpt lat="53.781923" lon="10.655308">
        <ele>56.194481</ele>
        <time>2021-07-10T12:22:21.841Z</time>
      </trkpt>
      <trkpt lat="53.781887" lon="10.655158">
        <ele>56.225248</ele>
        <time>2021-07-10T12:22:23.839Z</time>
      </trkpt>
      <trkpt lat="53.781850" lon="10.655009">
        <ele>56.255962</ele>
        <time>2021-07-10T12:22:25.844Z</time>
      </trkpt>
      <trkpt lat="53.781813" lon="10.654860">
        <ele>56.244589</ele>
        <time>2021-07-10T12:22:27.838Z</time>
      </trkpt>
      <trkpt lat="53.781778" lon="10.654711">
        <ele>56.198316</ele>
        <time>2021-07-10T12:22:29.837Z</time>
      </trkpt>
      <trkpt lat="53.781743" lon="10.654560">
        <ele>56.151507</ele>
        <time>2021-07-10T12:22:31.836Z</time>
      </trkpt>
      <trkpt lat="53.781705" lon="10.654411">
        <ele>56.104673</ele>
        <time>2021-07-10T12:22:33.821Z</time>
      </trkpt>
      <trkpt lat="53.781670" lon="10.654264">
        <ele>56.058936</ele>
        <time>2021-07-10T12:22:35.844Z</time>
      </trkpt>
      <trkpt lat="53.781634" lon="10.654124">
        <ele>56.014873</ele>
        <time>2021-07-10T12:22:37.845Z</time>
      </trkpt>
      <trkpt lat="53.781586" lon="10.653927">
        <ele>55.953377</ele>
        <time>2021-07-10T12:22:40.833Z</time>
      </trkpt>
      <trkpt lat="53.781538" lon="10.653731">
        <ele>55.892148</ele>
        <time>2021-07-10T12:22:43.837Z</time>
      </trkpt>
      <trkpt lat="53.781490" lon="10.653524">
        <ele>55.827974</ele>
        <time>2021-07-10T12:22:46.840Z</time>
      </trkpt>
      <trkpt lat="53.781443" lon="10.653334">
        <ele>55.768531</ele>
        <time>2021-07-10T12:22:49.827Z</time>
      </trkpt>
      <trkpt lat="53.781396" lon="10.653136">
        <ele>55.706952</ele>
        <time>2021-07-10T12:22:52.835Z</time>
      </trkpt>
      <trkpt lat="53.781350" lon="10.652944">
        <ele>55.647161</ele>
        <time>2021-07-10T12:22:55.842Z</time>
      </trkpt>
      <trkpt lat="53.781299" lon="10.652744">
        <ele>55.584297</ele>
        <time>2021-07-10T12:22:58.839Z</time>
      </trkpt>
      <trkpt lat="53.781253" lon="10.652547">
        <ele>55.523167</ele>
        <time>2021-07-10T12:23:01.831Z</time>
      </trkpt>
      <trkpt lat="53.781207" lon="10.652363">
        <ele>55.465509</ele>
        <time>2021-07-10T12:23:04.810Z</time>
      </trkpt>
      <trkpt lat="53.781161" lon="10.652202">
        <ele>55.413899</ele>
        <time>2021-07-10T12:23:07.820Z</time>
      </trkpt>
      <trkpt lat="53.781116" lon="10.652060">
        <ele>55.275151</ele>
        <time>2021-07-10T12:23:10.853Z</time>
      </trkpt>
      <trkpt lat="53.781056" lon="10.651909">
        <ele>55.021482</ele>
        <time>2021-07-10T12:23:15.846Z</time>
      </trkpt>
      <trkpt lat="53.781125" lon="10.651759">
        <ele>54.756481</ele>
        <time>2021-07-10T12:23:59.827Z</time>
      </trkpt>
      <trkpt lat="53.781564" lon="10.651534">
        <ele>53.674307</ele>
        <time>2021-07-10T12:24:49.825Z</time>
      </trkpt>
      <trkpt lat="53.781695" lon="10.651462">
        <ele>53.349353</ele>
        <time>2021-07-10T12:24:51.830Z</time>
      </trkpt>
      <trkpt lat="53.781790" lon="10.651423">
        <ele>53.118722</ele>
        <time>2021-07-10T12:24:53.847Z</time>
      </trkpt>
      <trkpt lat="53.781880" lon="10.651430">
        <ele>52.906163</ele>
        <time>2021-07-10T12:25:02.836Z</time>
      </trkpt>
      <trkpt lat="53.782144" lon="10.651296">
        <ele>52.255906</ele>
        <time>2021-07-10T12:25:31.844Z</time>
      </trkpt>
      <trkpt lat="53.782256" lon="10.651270">
        <ele>51.989193</ele>
        <time>2021-07-10T12:25:35.835Z</time>
      </trkpt>
      <trkpt lat="53.782372" lon="10.651204">
        <ele>51.700466</ele>
        <time>2021-07-10T12:25:38.848Z</time>
      </trkpt>
      <trkpt lat="53.782447" lon="10.651107">
        <ele>51.477770</ele>
        <time>2021-07-10T12:25:41.822Z</time>
      </trkpt>
      <trkpt lat="53.782530" lon="10.651013">
        <ele>51.242153</ele>
        <time>2021-07-10T12:25:47.840Z</time>
      </trkpt>
      <trkpt lat="53.782634" lon="10.650961">
        <ele>51.162531</ele>
        <time>2021-07-10T12:25:51.818Z</time>
      </trkpt>
      <trkpt lat="53.782729" lon="10.650937">
        <ele>51.182926</ele>
        <time>2021-07-10T12:25:54.821Z</time>
      </trkpt>
      <trkpt lat="53.782848" lon="10.650871">
        <ele>51.209514</ele>
        <time>2021-07-10T12:25:58.825Z</time>
      </trkpt>
      <trkpt lat="53.782941" lon="10.650812">
        <ele>51.230602</ele>
        <time>2021-07-10T12:26:02.832Z</time>
      </trkpt>
      <trkpt lat="53.783038" lon="10.650751">
        <ele>51.252574</ele>
        <time>2021-07-10T12:26:06.832Z</time>
      </trkpt>
      <trkpt lat="53.783130" lon="10.650720">
        <ele>51.272491</ele>
        <time>2021-07-10T12:26:10.822Z</time>
      </trkpt>
      <trkpt lat="53.783217" lon="10.650676">
        <ele>51.291770</ele>
        <time>2021-07-10T12:26:13.835Z</time>
      </trkpt>
      <trkpt lat="53.783312" lon="10.650612">
        <ele>51.313480</ele>
        <time>2021-07-10T12:26:16.844Z</time>
      </trkpt>
      <trkpt lat="53.783424" lon="10.650564">
        <ele>51.338011</ele>
        <time>2021-07-10T12:26:18.837Z</time>
      </trkpt>
      <trkpt lat="53.783541" lon="10.650535">
        <ele>51.363118</ele>
        <time>2021-07-10T12:26:20.819Z</time>
      </trkpt>
      <trkpt lat="53.783630" lon="10.650514">
        <ele>51.382198</ele>
        <time>2021-07-10T12:26:22.842Z</time>
      </trkpt>
      <trkpt lat="53.783769" lon="10.650498">
        <ele>51.411779</ele>
        <time>2021-07-10T12:26:25.816Z</time>
      </trkpt>
      <trkpt lat="53.783888" lon="10.650473">
        <ele>51.437240</ele>
        <time>2021-07-10T12:26:28.837Z</time>
      </trkpt>
      <trkpt lat="53.783977" lon="10.650441">
        <ele>51.456558</ele>
        <time>2021-07-10T12:26:31.842Z</time>
      </trkpt>
      <trkpt lat="53.784094" lon="10.650404">
        <ele>51.481830</ele>
        <time>2021-07-10T12:26:53.846Z</time>
      </trkpt>
      <trkpt lat="53.784174" lon="10.650204">
        <ele>51.512129</ele>
        <time>2021-07-10T12:27:19.833Z</time>
      </trkpt>
      <trkpt lat="53.784252" lon="10.650070">
        <ele>51.561881</ele>
        <time>2021-07-10T12:27:24.837Z</time>
      </trkpt>
      <trkpt lat="53.784329" lon="10.649956">
        <ele>51.680735</ele>
        <time>2021-07-10T12:27:29.830Z</time>
      </trkpt>
      <trkpt lat="53.784418" lon="10.649879">
        <ele>51.796861</ele>
        <time>2021-07-10T12:27:33.840Z</time>
      </trkpt>
      <trkpt lat="53.784501" lon="10.649809">
        <ele>51.904599</ele>
        <time>2021-07-10T12:27:36.822Z</time>
      </trkpt>
      <trkpt lat="53.784594" lon="10.649744">
        <ele>52.021496</ele>
        <time>2021-07-10T12:27:39.838Z</time>
      </trkpt>
      <trkpt lat="53.784713" lon="10.649719">
        <ele>52.160811</ele>
        <time>2021-07-10T12:27:43.829Z</time>
      </trkpt>
      <trkpt lat="53.784815" lon="10.649707">
        <ele>52.279601</ele>
        <time>2021-07-10T12:27:46.846Z</time>
      </trkpt>
      <trkpt lat="53.784913" lon="10.649692">
        <ele>52.393922</ele>
        <time>2021-07-10T12:27:51.814Z</time>
      </trkpt>
      <trkpt lat="53.784993" lon="10.649623">
        <ele>52.498239</ele>
        <time>2021-07-10T12:28:07.819Z</time>
      </trkpt>
      <trkpt lat="53.785076" lon="10.649551">
        <ele>52.606595</ele>
        <time>2021-07-10T12:28:14.836Z</time>
      </trkpt>
      <trkpt lat="53.785173" lon="10.649468">
        <ele>52.732873</ele>
        <time>2021-07-10T12:28:18.838Z</time>
      </trkpt>
      <trkpt lat="53.785248" lon="10.649377">
        <ele>52.840084</ele>
        <time>2021-07-10T12:28:21.836Z</time>
      </trkpt>
      <trkpt lat="53.785328" lon="10.649290">
        <ele>52.950559</ele>
        <time>2021-07-10T12:28:24.826Z</time>
      </trkpt>
      <trkpt lat="53.785423" lon="10.649212">
        <ele>53.073230</ele>
        <time>2021-07-10T12:28:28.846Z</time>
      </trkpt>
      <trkpt lat="53.785516" lon="10.649162">
        <ele>53.186598</ele>
        <time>2021-07-10T12:28:31.838Z</time>
      </trkpt>
      <trkpt lat="53.785610" lon="10.649124">
        <ele>53.298879</ele>
        <time>2021-07-10T12:28:34.833Z</time>
      </trkpt>
      <trkpt lat="53.785702" lon="10.649091">
        <ele>53.408139</ele>
        <time>2021-07-10T12:28:41.840Z</time>
      </trkpt>
      <trkpt lat="53.785714" lon="10.648916">
        <ele>53.529065</ele>
        <time>2021-07-10T12:28:48.841Z</time>
      </trkpt>
      <trkpt lat="53.785683" lon="10.648772">
        <ele>53.624020</ele>
        <time>2021-07-10T12:28:52.821Z</time>
      </trkpt>
      <trkpt lat="53.785649" lon="10.648620">
        <ele>53.657926</ele>
        <time>2021-07-10T12:28:56.830Z</time>
      </trkpt>
      <trkpt lat="53.785615" lon="10.648472">
        <ele>53.691054</ele>
        <time>2021-07-10T12:28:58.830Z</time>
      </trkpt>
      <trkpt lat="53.785573" lon="10.648283">
        <ele>53.733179</ele>
        <time>2021-07-10T12:29:00.824Z</time>
      </trkpt>
      <trkpt lat="53.785542" lon="10.648114">
        <ele>53.770096</ele>
        <time>2021-07-10T12:29:02.844Z</time>
      </trkpt>
      <trkpt lat="53.785505" lon="10.647972">
        <ele>53.802473</ele>
        <time>2021-07-10T12:29:04.834Z</time>
      </trkpt>
      <trkpt lat="53.785468" lon="10.647816">
        <ele>53.837542</ele>
        <time>2021-07-10T12:29:07.836Z</time>
      </trkpt>
      <trkpt lat="53.785431" lon="10.647663">
        <ele>53.872031</ele>
        <time>2021-07-10T12:29:09.846Z</time>
      </trkpt>
      <trkpt lat="53.785396" lon="10.647461">
        <ele>53.915947</ele>
        <time>2021-07-10T12:29:12.825Z</time>
      </trkpt>
      <trkpt lat="53.785342" lon="10.647282">
        <ele>53.957876</ele>
        <time>2021-07-10T12:29:15.830Z</time>
      </trkpt>
      <trkpt lat="53.785298" lon="10.647120">
        <ele>53.995073</ele>
        <time>2021-07-10T12:29:17.837Z</time>
      </trkpt>
      <trkpt lat="53.785245" lon="10.646911">
        <ele>54.042521</ele>
        <time>2021-07-10T12:29:20.828Z</time>
      </trkpt>
      <trkpt lat="53.785200" lon="10.646742">
        <ele>54.081193</ele>
        <time>2021-07-10T12:29:23.837Z</time>
      </trkpt>
      <trkpt lat="53.785154" lon="10.646545">
        <ele>54.125384</ele>
        <time>2021-07-10T12:29:26.824Z</time>
      </trkpt>
      <trkpt lat="53.785107" lon="10.646337">
        <ele>54.171843</ele>
        <time>2021-07-10T12:29:29.832Z</time>
      </trkpt>
      <trkpt lat="53.785065" lon="10.646150">
        <ele>54.213579</ele>
        <time>2021-07-10T12:29:32.828Z</time>
      </trkpt>
      <trkpt lat="53.785020" lon="10.645988">
        <ele>54.250924</ele>
        <time>2021-07-10T12:29:35.831Z</time>
      </trkpt>
      <trkpt lat="53.784986" lon="10.645821">
        <ele>54.330005</ele>
        <time>2021-07-10T12:29:39.826Z</time>
      </trkpt>
      <trkpt lat="53.784963" lon="10.645660">
        <ele>54.408627</ele>
        <time>2021-07-10T12:29:43.836Z</time>
      </trkpt>
      <trkpt lat="53.784919" lon="10.645503">
        <ele>54.491108</ele>
        <time>2021-07-10T12:29:48.835Z</time>
      </trkpt>
      <trkpt lat="53.784863" lon="10.645338">
        <ele>54.581429</ele>
        <time>2021-07-10T12:29:52.830Z</time>
      </trkpt>
      <trkpt lat="53.784806" lon="10.645164">
        <ele>54.675866</ele>
        <time>2021-07-10T12:29:55.836Z</time>
      </trkpt>
      <trkpt lat="53.784773" lon="10.644990">
        <ele>54.762608</ele>
        <time>2021-07-10T12:29:58.835Z</time>
      </trkpt>
      <trkpt lat="53.784726" lon="10.644791">
        <ele>54.864334</ele>
        <time>2021-07-10T12:30:01.834Z</time>
      </trkpt>
      <trkpt lat="53.784681" lon="10.644581">
        <ele>54.970367</ele>
        <time>2021-07-10T12:30:04.824Z</time>
      </trkpt>
      <trkpt lat="53.784649" lon="10.644432">
        <ele>55.045619</ele>
        <time>2021-07-10T12:30:06.829Z</time>
      </trkpt>
      <trkpt lat="53.784603" lon="10.644246">
        <ele>55.141329</ele>
        <time>2021-07-10T12:30:09.835Z</time>
      </trkpt>
      <trkpt lat="53.784548" lon="10.644065">
        <ele>55.237940</ele>
        <time>2021-07-10T12:30:12.841Z</time>
      </trkpt>
      <trkpt lat="53.784503" lon="10.643886">
        <ele>55.330277</ele>
        <time>2021-07-10T12:30:15.825Z</time>
      </trkpt>
      <trkpt lat="53.784464" lon="10.643714">
        <ele>55.417725</ele>
        <time>2021-07-10T12:30:18.837Z</time>
      </trkpt>
      <trkpt lat="53.784434" lon="10.643569">
        <ele>55.490650</ele>
        <time>2021-07-10T12:30:20.828Z</time>
      </trkpt>
      <trkpt lat="53.784404" lon="10.643387">
        <ele>55.580338</ele>
        <time>2021-07-10T12:30:23.816Z</time>
      </trkpt>
      <trkpt lat="53.784367" lon="10.643208">
        <ele>55.670353</ele>
        <time>2021-07-10T12:30:26.822Z</time>
      </trkpt>
      <trkpt lat="53.784327" lon="10.643027">
        <ele>55.732904</ele>
        <time>2021-07-10T12:30:29.829Z</time>
      </trkpt>
      <trkpt lat="53.784288" lon="10.642859">
        <ele>55.778523</ele>
        <time>2021-07-10T12:30:32.823Z</time>
      </trkpt>
      <trkpt lat="53.784247" lon="10.642682">
        <ele>55.826571</ele>
        <time>2021-07-10T12:30:35.826Z</time>
      </trkpt>
      <trkpt lat="53.784209" lon="10.642501">
        <ele>55.875117</ele>
        <time>2021-07-10T12:30:38.816Z</time>
      </trkpt>
      <trkpt lat="53.784175" lon="10.642311">
        <ele>55.925290</ele>
        <time>2021-07-10T12:30:41.825Z</time>
      </trkpt>
      <trkpt lat="53.784141" lon="10.642114">
        <ele>55.977159</ele>
        <time>2021-07-10T12:30:44.819Z</time>
      </trkpt>
      <trkpt lat="53.784110" lon="10.641915">
        <ele>56.029171</ele>
        <time>2021-07-10T12:30:47.818Z</time>
      </trkpt>
      <trkpt lat="53.784085" lon="10.641709">
        <ele>56.082321</ele>
        <time>2021-07-10T12:30:50.828Z</time>
      </trkpt>
      <trkpt lat="53.784063" lon="10.641533">
        <ele>56.127786</ele>
        <time>2021-07-10T12:30:53.841Z</time>
      </trkpt>
      <trkpt lat="53.784039" lon="10.641341">
        <ele>56.177384</ele>
        <time>2021-07-10T12:30:56.826Z</time>
      </trkpt>
      <trkpt lat="53.784034" lon="10.641146">
        <ele>56.226713</ele>
        <time>2021-07-10T12:30:59.829Z</time>
      </trkpt>
      <trkpt lat="53.784033" lon="10.640968">
        <ele>56.271702</ele>
        <time>2021-07-10T12:31:03.830Z</time>
      </trkpt>
      <trkpt lat="53.783980" lon="10.640835">
        <ele>56.312246</ele>
        <time>2021-07-10T12:31:09.833Z</time>
      </trkpt>
      <trkpt lat="53.783882" lon="10.640846">
        <ele>56.354258</ele>
        <time>2021-07-10T12:31:12.831Z</time>
      </trkpt>
      <trkpt lat="53.783772" lon="10.640845">
        <ele>56.401312</ele>
        <time>2021-07-10T12:31:15.836Z</time>
      </trkpt>
      <trkpt lat="53.783661" lon="10.640848">
        <ele>56.448799</ele>
        <time>2021-07-10T12:31:18.836Z</time>
      </trkpt>
      <trkpt lat="53.783548" lon="10.640848">
        <ele>56.469060</ele>
        <time>2021-07-10T12:31:21.830Z</time>
      </trkpt>
      <trkpt lat="53.783427" lon="10.640846">
        <ele>56.469060</ele>
        <time>2021-07-10T12:31:24.825Z</time>
      </trkpt>
      <trkpt lat="53.783311" lon="10.640850">
        <ele>56.469060</ele>
        <time>2021-07-10T12:31:27.825Z</time>
      </trkpt>
      <trkpt lat="53.783192" lon="10.640849">
        <ele>56.469060</ele>
        <time>2021-07-10T12:31:30.829Z</time>
      </trkpt>
      <trkpt lat="53.783081" lon="10.640848">
        <ele>56.469060</ele>
        <time>2021-07-10T12:31:33.846Z</time>
      </trkpt>
      <trkpt lat="53.782971" lon="10.640841">
        <ele>56.469060</ele>
        <time>2021-07-10T12:31:36.837Z</time>
      </trkpt>
      <trkpt lat="53.782858" lon="10.640842">
        <ele>56.469060</ele>
        <time>2021-07-10T12:31:39.825Z</time>
      </trkpt>
      <trkpt lat="53.782758" lon="10.640841">
        <ele>56.469060</ele>
        <time>2021-07-10T12:31:42.825Z</time>
      </trkpt>
      <trkpt lat="53.782665" lon="10.640837">
        <ele>56.469060</ele>
        <time>2021-07-10T12:31:45.828Z</time>
      </trkpt>
      <trkpt lat="53.782550" lon="10.640851">
        <ele>56.469060</ele>
        <time>2021-07-10T12:31:49.834Z</time>
      </trkpt>
      <trkpt lat="53.782439" lon="10.640910">
        <ele>56.469060</ele>
        <time>2021-07-10T12:31:53.843Z</time>
      </trkpt>
      <trkpt lat="53.782342" lon="10.640934">
        <ele>56.469060</ele>
        <time>2021-07-10T12:31:57.833Z</time>
      </trkpt>
      <trkpt lat="53.782254" lon="10.640835">
        <ele>56.469060</ele>
        <time>2021-07-10T12:32:01.828Z</time>
      </trkpt>
      <trkpt lat="53.782150" lon="10.640782">
        <ele>56.469060</ele>
        <time>2021-07-10T12:32:04.817Z</time>
      </trkpt>
      <trkpt lat="53.782059" lon="10.640841">
        <ele>56.469060</ele>
        <time>2021-07-10T12:32:07.836Z</time>
      </trkpt>
      <trkpt lat="53.781974" lon="10.640925">
        <ele>56.469060</ele>
        <time>2021-07-10T12:32:10.827Z</time>
      </trkpt>
      <trkpt lat="53.781933" lon="10.640948">
        <ele>56.469060</ele>
        <time>2021-07-10T12:32:51.751Z</time>
      </trkpt>
    </trkseg>
  </trk>
</gpx>